<?xml version="1.0" encoding="UTF-8" standalone="no" ?>
<gpx xmlns="http://www.topografix.com/GPX/1/1" xmlns:xsi="http://www.w3.org/2001/XMLSchema-instance" xsi:schemaLocation="http://www.topografix.com/GPX/1/1 http://www.topografix.com/GPX/1/1/gpx.xsd" version="1.1" creator="VisuGPX - https://www.visugpx.com">
  <metadata>
    <name>Tiffauges 23</name>
  </metadata>
  <trk>
    <name><![CDATA[11379549-Tiffauges]]></name>
    <extensions>
      <line xmlns="http://www.topografix.com/GPX/gpx_style/0/2">
        <color>0000FF</color>
        <width>4</width>
      </line>
    </extensions>
    <trkseg>
      <trkpt lat="47.01272" lon="-1.1183">
        <ele>57</ele>
        <time>2021-04-25T16:56:17Z</time>
      </trkpt>
      <trkpt lat="47.01318" lon="-1.11815">
        <ele>57</ele>
        <time>2021-04-25T16:57:20Z</time>
      </trkpt>
      <trkpt lat="47.01324" lon="-1.1181">
        <ele>57</ele>
        <time>2021-04-25T16:57:29Z</time>
      </trkpt>
      <trkpt lat="47.01344" lon="-1.11816">
        <ele>56</ele>
        <time>2021-04-25T16:57:56Z</time>
      </trkpt>
      <trkpt lat="47.01387" lon="-1.11813">
        <ele>56</ele>
        <time>2021-04-25T16:58:54Z</time>
      </trkpt>
      <trkpt lat="47.014" lon="-1.11806">
        <ele>56</ele>
        <time>2021-04-25T16:59:12Z</time>
      </trkpt>
      <trkpt lat="47.01419" lon="-1.11817">
        <ele>56</ele>
        <time>2021-04-25T16:59:40Z</time>
      </trkpt>
      <trkpt lat="47.01422" lon="-1.11839">
        <ele>56</ele>
        <time>2021-04-25T17:00:00Z</time>
      </trkpt>
      <trkpt lat="47.01428" lon="-1.11844">
        <ele>57</ele>
        <time>2021-04-25T17:00:09Z</time>
      </trkpt>
      <trkpt lat="47.01449" lon="-1.11834">
        <ele>60</ele>
        <time>2021-04-25T17:00:39Z</time>
      </trkpt>
      <trkpt lat="47.01466" lon="-1.11813">
        <ele>62</ele>
        <time>2021-04-25T17:01:08Z</time>
      </trkpt>
      <trkpt lat="47.01477" lon="-1.11791">
        <ele>62</ele>
        <time>2021-04-25T17:01:33Z</time>
      </trkpt>
      <trkpt lat="47.01487" lon="-1.11764">
        <ele>62</ele>
        <time>2021-04-25T17:02:01Z</time>
      </trkpt>
      <trkpt lat="47.015" lon="-1.11739">
        <ele>63</ele>
        <time>2021-04-25T17:02:30Z</time>
      </trkpt>
      <trkpt lat="47.01515" lon="-1.1169">
        <ele>62</ele>
        <time>2021-04-25T17:03:19Z</time>
      </trkpt>
      <trkpt lat="47.01549" lon="-1.11649">
        <ele>61</ele>
        <time>2021-04-25T17:04:17Z</time>
      </trkpt>
      <trkpt lat="47.01581" lon="-1.11637">
        <ele>61</ele>
        <time>2021-04-25T17:05:01Z</time>
      </trkpt>
      <trkpt lat="47.01584" lon="-1.11633">
        <ele>61</ele>
        <time>2021-04-25T17:05:07Z</time>
      </trkpt>
      <trkpt lat="47.01627" lon="-1.11679">
        <ele>62</ele>
        <time>2021-04-25T17:06:18Z</time>
      </trkpt>
      <trkpt lat="47.01646" lon="-1.11691">
        <ele>63</ele>
        <time>2021-04-25T17:06:45Z</time>
      </trkpt>
      <trkpt lat="47.01683" lon="-1.11707">
        <ele>64</ele>
        <time>2021-04-25T17:07:37Z</time>
      </trkpt>
      <trkpt lat="47.01688" lon="-1.11706">
        <ele>64</ele>
        <time>2021-04-25T17:07:44Z</time>
      </trkpt>
      <trkpt lat="47.01721" lon="-1.11713">
        <ele>65</ele>
        <time>2021-04-25T17:08:28Z</time>
      </trkpt>
      <trkpt lat="47.01743" lon="-1.11712">
        <ele>64</ele>
        <time>2021-04-25T17:08:57Z</time>
      </trkpt>
      <trkpt lat="47.01753" lon="-1.11709">
        <ele>64</ele>
        <time>2021-04-25T17:09:11Z</time>
      </trkpt>
      <trkpt lat="47.01768" lon="-1.11712">
        <ele>65</ele>
        <time>2021-04-25T17:09:31Z</time>
      </trkpt>
      <trkpt lat="47.01782" lon="-1.11711">
        <ele>65</ele>
        <time>2021-04-25T17:09:50Z</time>
      </trkpt>
      <trkpt lat="47.01794" lon="-1.11713">
        <ele>66</ele>
        <time>2021-04-25T17:10:06Z</time>
      </trkpt>
      <trkpt lat="47.01803" lon="-1.11718">
        <ele>67</ele>
        <time>2021-04-25T17:10:19Z</time>
      </trkpt>
      <trkpt lat="47.01799" lon="-1.11726">
        <ele>68</ele>
        <time>2021-04-25T17:10:28Z</time>
      </trkpt>
      <trkpt lat="47.01793" lon="-1.11729">
        <ele>68</ele>
        <time>2021-04-25T17:10:36Z</time>
      </trkpt>
      <trkpt lat="47.01793" lon="-1.11724">
        <ele>68</ele>
        <time>2021-04-25T17:10:41Z</time>
      </trkpt>
      <trkpt lat="47.01801" lon="-1.11714">
        <ele>66</ele>
        <time>2021-04-25T17:10:55Z</time>
      </trkpt>
      <trkpt lat="47.01802" lon="-1.11706">
        <ele>65</ele>
        <time>2021-04-25T17:11:02Z</time>
      </trkpt>
      <trkpt lat="47.01798" lon="-1.11701">
        <ele>64</ele>
        <time>2021-04-25T17:11:09Z</time>
      </trkpt>
      <trkpt lat="47.01788" lon="-1.11669">
        <ele>59</ele>
        <time>2021-04-25T17:11:41Z</time>
      </trkpt>
      <trkpt lat="47.0179" lon="-1.11665">
        <ele>58</ele>
        <time>2021-04-25T17:11:46Z</time>
      </trkpt>
      <trkpt lat="47.01809" lon="-1.1165">
        <ele>58</ele>
        <time>2021-04-25T17:12:15Z</time>
      </trkpt>
      <trkpt lat="47.01817" lon="-1.11649">
        <ele>57</ele>
        <time>2021-04-25T17:12:25Z</time>
      </trkpt>
      <trkpt lat="47.01807" lon="-1.11691">
        <ele>63</ele>
        <time>2021-04-25T17:13:06Z</time>
      </trkpt>
      <trkpt lat="47.01797" lon="-1.11719">
        <ele>67</ele>
        <time>2021-04-25T17:13:35Z</time>
      </trkpt>
      <trkpt lat="47.01783" lon="-1.11742">
        <ele>70</ele>
        <time>2021-04-25T17:14:03Z</time>
      </trkpt>
      <trkpt lat="47.01757" lon="-1.11755">
        <ele>70</ele>
        <time>2021-04-25T17:14:39Z</time>
      </trkpt>
      <trkpt lat="47.01704" lon="-1.11772">
        <ele>72</ele>
        <time>2021-04-25T17:15:52Z</time>
      </trkpt>
      <trkpt lat="47.01688" lon="-1.11768">
        <ele>72</ele>
        <time>2021-04-25T17:16:13Z</time>
      </trkpt>
      <trkpt lat="47.01664" lon="-1.11772">
        <ele>73</ele>
        <time>2021-04-25T17:16:46Z</time>
      </trkpt>
      <trkpt lat="47.01632" lon="-1.11771">
        <ele>73</ele>
        <time>2021-04-25T17:17:28Z</time>
      </trkpt>
      <trkpt lat="47.01623" lon="-1.11774">
        <ele>73</ele>
        <time>2021-04-25T17:17:41Z</time>
      </trkpt>
      <trkpt lat="47.01607" lon="-1.11801">
        <ele>75</ele>
        <time>2021-04-25T17:18:13Z</time>
      </trkpt>
      <trkpt lat="47.01601" lon="-1.11825">
        <ele>76</ele>
        <time>2021-04-25T17:18:37Z</time>
      </trkpt>
      <trkpt lat="47.01595" lon="-1.11873">
        <ele>78</ele>
        <time>2021-04-25T17:19:21Z</time>
      </trkpt>
      <trkpt lat="47.01594" lon="-1.11905">
        <ele>78</ele>
        <time>2021-04-25T17:19:50Z</time>
      </trkpt>
      <trkpt lat="47.01611" lon="-1.11972">
        <ele>79</ele>
        <time>2021-04-25T17:20:55Z</time>
      </trkpt>
      <trkpt lat="47.01618" lon="-1.12013">
        <ele>79</ele>
        <time>2021-04-25T17:21:34Z</time>
      </trkpt>
      <trkpt lat="47.01673" lon="-1.12172">
        <ele>78</ele>
        <time>2021-04-25T17:24:16Z</time>
      </trkpt>
      <trkpt lat="47.01696" lon="-1.12265">
        <ele>79</ele>
        <time>2021-04-25T17:25:46Z</time>
      </trkpt>
      <trkpt lat="47.0171" lon="-1.12368">
        <ele>79</ele>
        <time>2021-04-25T17:27:21Z</time>
      </trkpt>
      <trkpt lat="47.01722" lon="-1.12435">
        <ele>80</ele>
        <time>2021-04-25T17:28:24Z</time>
      </trkpt>
      <trkpt lat="47.01732" lon="-1.1247">
        <ele>80</ele>
        <time>2021-04-25T17:28:59Z</time>
      </trkpt>
      <trkpt lat="47.01739" lon="-1.12508">
        <ele>80</ele>
        <time>2021-04-25T17:29:35Z</time>
      </trkpt>
      <trkpt lat="47.01739" lon="-1.12536">
        <ele>80</ele>
        <time>2021-04-25T17:30:00Z</time>
      </trkpt>
      <trkpt lat="47.01728" lon="-1.12634">
        <ele>79</ele>
        <time>2021-04-25T17:31:31Z</time>
      </trkpt>
      <trkpt lat="47.01731" lon="-1.12681">
        <ele>79</ele>
        <time>2021-04-25T17:32:13Z</time>
      </trkpt>
      <trkpt lat="47.01727" lon="-1.12722">
        <ele>79</ele>
        <time>2021-04-25T17:32:51Z</time>
      </trkpt>
      <trkpt lat="47.01729" lon="-1.12845">
        <ele>79</ele>
        <time>2021-04-25T17:34:43Z</time>
      </trkpt>
      <trkpt lat="47.01732" lon="-1.12887">
        <ele>79</ele>
        <time>2021-04-25T17:35:22Z</time>
      </trkpt>
      <trkpt lat="47.0175" lon="-1.13011">
        <ele>79</ele>
        <time>2021-04-25T17:37:17Z</time>
      </trkpt>
      <trkpt lat="47.01759" lon="-1.13063">
        <ele>78</ele>
        <time>2021-04-25T17:38:06Z</time>
      </trkpt>
      <trkpt lat="47.01769" lon="-1.13102">
        <ele>77</ele>
        <time>2021-04-25T17:38:44Z</time>
      </trkpt>
      <trkpt lat="47.01777" lon="-1.13171">
        <ele>73</ele>
        <time>2021-04-25T17:39:47Z</time>
      </trkpt>
      <trkpt lat="47.01784" lon="-1.1321">
        <ele>72</ele>
        <time>2021-04-25T17:40:24Z</time>
      </trkpt>
      <trkpt lat="47.01801" lon="-1.13248">
        <ele>71</ele>
        <time>2021-04-25T17:41:05Z</time>
      </trkpt>
      <trkpt lat="47.01814" lon="-1.13246">
        <ele>70</ele>
        <time>2021-04-25T17:41:23Z</time>
      </trkpt>
      <trkpt lat="47.01828" lon="-1.13239">
        <ele>69</ele>
        <time>2021-04-25T17:41:43Z</time>
      </trkpt>
      <trkpt lat="47.0188" lon="-1.132">
        <ele>66</ele>
        <time>2021-04-25T17:43:00Z</time>
      </trkpt>
      <trkpt lat="47.01914" lon="-1.13153">
        <ele>66</ele>
        <time>2021-04-25T17:44:03Z</time>
      </trkpt>
      <trkpt lat="47.01933" lon="-1.1314">
        <ele>64</ele>
        <time>2021-04-25T17:44:31Z</time>
      </trkpt>
      <trkpt lat="47.01949" lon="-1.13135">
        <ele>62</ele>
        <time>2021-04-25T17:44:53Z</time>
      </trkpt>
      <trkpt lat="47.01966" lon="-1.13111">
        <ele>61</ele>
        <time>2021-04-25T17:45:24Z</time>
      </trkpt>
      <trkpt lat="47.01979" lon="-1.13079">
        <ele>62</ele>
        <time>2021-04-25T17:45:58Z</time>
      </trkpt>
      <trkpt lat="47.02005" lon="-1.1304">
        <ele>62</ele>
        <time>2021-04-25T17:46:48Z</time>
      </trkpt>
      <trkpt lat="47.0203" lon="-1.12981">
        <ele>61</ele>
        <time>2021-04-25T17:47:51Z</time>
      </trkpt>
      <trkpt lat="47.02038" lon="-1.12969">
        <ele>60</ele>
        <time>2021-04-25T17:48:06Z</time>
      </trkpt>
      <trkpt lat="47.02048" lon="-1.12946">
        <ele>59</ele>
        <time>2021-04-25T17:48:31Z</time>
      </trkpt>
      <trkpt lat="47.02051" lon="-1.12926">
        <ele>60</ele>
        <time>2021-04-25T17:48:50Z</time>
      </trkpt>
      <trkpt lat="47.02061" lon="-1.12916">
        <ele>58</ele>
        <time>2021-04-25T17:49:06Z</time>
      </trkpt>
      <trkpt lat="47.02071" lon="-1.1287">
        <ele>57</ele>
        <time>2021-04-25T17:49:50Z</time>
      </trkpt>
      <trkpt lat="47.02078" lon="-1.12808">
        <ele>57</ele>
        <time>2021-04-25T17:50:47Z</time>
      </trkpt>
      <trkpt lat="47.02087" lon="-1.12788">
        <ele>55</ele>
        <time>2021-04-25T17:51:09Z</time>
      </trkpt>
      <trkpt lat="47.02089" lon="-1.1276">
        <ele>55</ele>
        <time>2021-04-25T17:51:34Z</time>
      </trkpt>
      <trkpt lat="47.02087" lon="-1.12723">
        <ele>55</ele>
        <time>2021-04-25T17:52:08Z</time>
      </trkpt>
      <trkpt lat="47.02089" lon="-1.12696">
        <ele>55</ele>
        <time>2021-04-25T17:52:33Z</time>
      </trkpt>
      <trkpt lat="47.02097" lon="-1.12648">
        <ele>54</ele>
        <time>2021-04-25T17:53:18Z</time>
      </trkpt>
      <trkpt lat="47.02098" lon="-1.1262">
        <ele>55</ele>
        <time>2021-04-25T17:53:43Z</time>
      </trkpt>
      <trkpt lat="47.02095" lon="-1.12589">
        <ele>56</ele>
        <time>2021-04-25T17:54:12Z</time>
      </trkpt>
      <trkpt lat="47.02105" lon="-1.12569">
        <ele>56</ele>
        <time>2021-04-25T17:54:34Z</time>
      </trkpt>
      <trkpt lat="47.02107" lon="-1.12543">
        <ele>56</ele>
        <time>2021-04-25T17:54:58Z</time>
      </trkpt>
      <trkpt lat="47.0212" lon="-1.12499">
        <ele>56</ele>
        <time>2021-04-25T17:55:42Z</time>
      </trkpt>
      <trkpt lat="47.02121" lon="-1.12454">
        <ele>58</ele>
        <time>2021-04-25T17:56:23Z</time>
      </trkpt>
      <trkpt lat="47.02118" lon="-1.12401">
        <ele>61</ele>
        <time>2021-04-25T17:57:11Z</time>
      </trkpt>
      <trkpt lat="47.02121" lon="-1.12369">
        <ele>60</ele>
        <time>2021-04-25T17:57:40Z</time>
      </trkpt>
      <trkpt lat="47.02115" lon="-1.12304">
        <ele>61</ele>
        <time>2021-04-25T17:58:40Z</time>
      </trkpt>
      <trkpt lat="47.02111" lon="-1.12278">
        <ele>61</ele>
        <time>2021-04-25T17:59:04Z</time>
      </trkpt>
      <trkpt lat="47.02104" lon="-1.12255">
        <ele>62</ele>
        <time>2021-04-25T17:59:27Z</time>
      </trkpt>
      <trkpt lat="47.02101" lon="-1.12221">
        <ele>61</ele>
        <time>2021-04-25T17:59:58Z</time>
      </trkpt>
      <trkpt lat="47.02094" lon="-1.12191">
        <ele>60</ele>
        <time>2021-04-25T18:00:27Z</time>
      </trkpt>
      <trkpt lat="47.02086" lon="-1.12135">
        <ele>57</ele>
        <time>2021-04-25T18:01:19Z</time>
      </trkpt>
      <trkpt lat="47.02083" lon="-1.12052">
        <ele>53</ele>
        <time>2021-04-25T18:02:35Z</time>
      </trkpt>
      <trkpt lat="47.02063" lon="-1.11968">
        <ele>56</ele>
        <time>2021-04-25T18:03:56Z</time>
      </trkpt>
      <trkpt lat="47.0205" lon="-1.11891">
        <ele>58</ele>
        <time>2021-04-25T18:05:08Z</time>
      </trkpt>
      <trkpt lat="47.02048" lon="-1.1185">
        <ele>57</ele>
        <time>2021-04-25T18:05:45Z</time>
      </trkpt>
      <trkpt lat="47.0204" lon="-1.11832">
        <ele>58</ele>
        <time>2021-04-25T18:06:05Z</time>
      </trkpt>
      <trkpt lat="47.02018" lon="-1.11795">
        <ele>59</ele>
        <time>2021-04-25T18:06:50Z</time>
      </trkpt>
      <trkpt lat="47.02" lon="-1.11751">
        <ele>56</ele>
        <time>2021-04-25T18:07:36Z</time>
      </trkpt>
      <trkpt lat="47.01957" lon="-1.11673">
        <ele>55</ele>
        <time>2021-04-25T18:09:08Z</time>
      </trkpt>
      <trkpt lat="47.01947" lon="-1.11642">
        <ele>54</ele>
        <time>2021-04-25T18:09:39Z</time>
      </trkpt>
      <trkpt lat="47.01932" lon="-1.11616">
        <ele>53</ele>
        <time>2021-04-25T18:10:10Z</time>
      </trkpt>
      <trkpt lat="47.019" lon="-1.11585">
        <ele>50</ele>
        <time>2021-04-25T18:11:01Z</time>
      </trkpt>
      <trkpt lat="47.01871" lon="-1.1154">
        <ele>50</ele>
        <time>2021-04-25T18:11:57Z</time>
      </trkpt>
      <trkpt lat="47.01865" lon="-1.11543">
        <ele>51</ele>
        <time>2021-04-25T18:12:06Z</time>
      </trkpt>
      <trkpt lat="47.01857" lon="-1.11515">
        <ele>51</ele>
        <time>2021-04-25T18:12:33Z</time>
      </trkpt>
      <trkpt lat="47.01855" lon="-1.11484">
        <ele>51</ele>
        <time>2021-04-25T18:13:02Z</time>
      </trkpt>
      <trkpt lat="47.01849" lon="-1.1146">
        <ele>51</ele>
        <time>2021-04-25T18:13:25Z</time>
      </trkpt>
      <trkpt lat="47.01816" lon="-1.11414">
        <ele>51</ele>
        <time>2021-04-25T18:14:26Z</time>
      </trkpt>
      <trkpt lat="47.01784" lon="-1.11377">
        <ele>52</ele>
        <time>2021-04-25T18:15:20Z</time>
      </trkpt>
      <trkpt lat="47.0178" lon="-1.11376">
        <ele>53</ele>
        <time>2021-04-25T18:15:25Z</time>
      </trkpt>
      <trkpt lat="47.01776" lon="-1.11382">
        <ele>53</ele>
        <time>2021-04-25T18:15:33Z</time>
      </trkpt>
      <trkpt lat="47.01776" lon="-1.11379">
        <ele>53</ele>
        <time>2021-04-25T18:15:36Z</time>
      </trkpt>
      <trkpt lat="47.01771" lon="-1.11376">
        <ele>53</ele>
        <time>2021-04-25T18:15:43Z</time>
      </trkpt>
      <trkpt lat="47.0177" lon="-1.11372">
        <ele>53</ele>
        <time>2021-04-25T18:15:47Z</time>
      </trkpt>
      <trkpt lat="47.01758" lon="-1.11369">
        <ele>53</ele>
        <time>2021-04-25T18:16:03Z</time>
      </trkpt>
      <trkpt lat="47.01739" lon="-1.11358">
        <ele>53</ele>
        <time>2021-04-25T18:16:30Z</time>
      </trkpt>
      <trkpt lat="47.01712" lon="-1.11348">
        <ele>55</ele>
        <time>2021-04-25T18:17:08Z</time>
      </trkpt>
      <trkpt lat="47.01689" lon="-1.11331">
        <ele>55</ele>
        <time>2021-04-25T18:17:42Z</time>
      </trkpt>
      <trkpt lat="47.01683" lon="-1.11323">
        <ele>55</ele>
        <time>2021-04-25T18:17:53Z</time>
      </trkpt>
      <trkpt lat="47.0167" lon="-1.11316">
        <ele>55</ele>
        <time>2021-04-25T18:18:11Z</time>
      </trkpt>
      <trkpt lat="47.01649" lon="-1.11322">
        <ele>56</ele>
        <time>2021-04-25T18:18:40Z</time>
      </trkpt>
      <trkpt lat="47.01626" lon="-1.11333">
        <ele>57</ele>
        <time>2021-04-25T18:19:12Z</time>
      </trkpt>
      <trkpt lat="47.01601" lon="-1.11316">
        <ele>56</ele>
        <time>2021-04-25T18:19:49Z</time>
      </trkpt>
      <trkpt lat="47.01588" lon="-1.11304">
        <ele>55</ele>
        <time>2021-04-25T18:20:09Z</time>
      </trkpt>
      <trkpt lat="47.01594" lon="-1.11275">
        <ele>53</ele>
        <time>2021-04-25T18:20:37Z</time>
      </trkpt>
      <trkpt lat="47.01605" lon="-1.11251">
        <ele>51</ele>
        <time>2021-04-25T18:21:03Z</time>
      </trkpt>
      <trkpt lat="47.01605" lon="-1.1121">
        <ele>50</ele>
        <time>2021-04-25T18:21:41Z</time>
      </trkpt>
      <trkpt lat="47.0161" lon="-1.11141">
        <ele>50</ele>
        <time>2021-04-25T18:22:44Z</time>
      </trkpt>
      <trkpt lat="47.01604" lon="-1.11132">
        <ele>50</ele>
        <time>2021-04-25T18:22:55Z</time>
      </trkpt>
      <trkpt lat="47.01611" lon="-1.11083">
        <ele>52</ele>
        <time>2021-04-25T18:23:41Z</time>
      </trkpt>
      <trkpt lat="47.01609" lon="-1.11087">
        <ele>51</ele>
        <time>2021-04-25T18:23:45Z</time>
      </trkpt>
      <trkpt lat="47.01618" lon="-1.11079">
        <ele>52</ele>
        <time>2021-04-25T18:23:59Z</time>
      </trkpt>
      <trkpt lat="47.01631" lon="-1.11017">
        <ele>54</ele>
        <time>2021-04-25T18:24:58Z</time>
      </trkpt>
      <trkpt lat="47.01644" lon="-1.11007">
        <ele>56</ele>
        <time>2021-04-25T18:25:18Z</time>
      </trkpt>
      <trkpt lat="47.01651" lon="-1.11015">
        <ele>56</ele>
        <time>2021-04-25T18:25:30Z</time>
      </trkpt>
      <trkpt lat="47.01654" lon="-1.11025">
        <ele>56</ele>
        <time>2021-04-25T18:25:40Z</time>
      </trkpt>
      <trkpt lat="47.01652" lon="-1.11038">
        <ele>55</ele>
        <time>2021-04-25T18:25:52Z</time>
      </trkpt>
      <trkpt lat="47.01645" lon="-1.11037">
        <ele>55</ele>
        <time>2021-04-25T18:26:01Z</time>
      </trkpt>
      <trkpt lat="47.01647" lon="-1.11027">
        <ele>55</ele>
        <time>2021-04-25T18:26:11Z</time>
      </trkpt>
      <trkpt lat="47.01669" lon="-1.11008">
        <ele>58</ele>
        <time>2021-04-25T18:26:45Z</time>
      </trkpt>
      <trkpt lat="47.01682" lon="-1.11002">
        <ele>60</ele>
        <time>2021-04-25T18:27:03Z</time>
      </trkpt>
      <trkpt lat="47.0171" lon="-1.10997">
        <ele>64</ele>
        <time>2021-04-25T18:27:40Z</time>
      </trkpt>
      <trkpt lat="47.01746" lon="-1.11006">
        <ele>69</ele>
        <time>2021-04-25T18:28:29Z</time>
      </trkpt>
      <trkpt lat="47.01777" lon="-1.11009">
        <ele>73</ele>
        <time>2021-04-25T18:29:11Z</time>
      </trkpt>
      <trkpt lat="47.0181" lon="-1.11008">
        <ele>77</ele>
        <time>2021-04-25T18:29:55Z</time>
      </trkpt>
      <trkpt lat="47.01826" lon="-1.11">
        <ele>79</ele>
        <time>2021-04-25T18:30:17Z</time>
      </trkpt>
      <trkpt lat="47.01839" lon="-1.10998">
        <ele>80</ele>
        <time>2021-04-25T18:30:35Z</time>
      </trkpt>
      <trkpt lat="47.0186" lon="-1.10987">
        <ele>80</ele>
        <time>2021-04-25T18:31:04Z</time>
      </trkpt>
      <trkpt lat="47.01864" lon="-1.10987">
        <ele>80</ele>
        <time>2021-04-25T18:31:10Z</time>
      </trkpt>
      <trkpt lat="47.01907" lon="-1.11021">
        <ele>82</ele>
        <time>2021-04-25T18:32:15Z</time>
      </trkpt>
      <trkpt lat="47.01923" lon="-1.1104">
        <ele>82</ele>
        <time>2021-04-25T18:32:42Z</time>
      </trkpt>
      <trkpt lat="47.01958" lon="-1.11068">
        <ele>84</ele>
        <time>2021-04-25T18:33:36Z</time>
      </trkpt>
      <trkpt lat="47.01983" lon="-1.1108">
        <ele>85</ele>
        <time>2021-04-25T18:34:11Z</time>
      </trkpt>
      <trkpt lat="47.02011" lon="-1.1108">
        <ele>86</ele>
        <time>2021-04-25T18:34:48Z</time>
      </trkpt>
      <trkpt lat="47.0212" lon="-1.11089">
        <ele>90</ele>
        <time>2021-04-25T18:37:14Z</time>
      </trkpt>
      <trkpt lat="47.02145" lon="-1.11089">
        <ele>90</ele>
        <time>2021-04-25T18:37:47Z</time>
      </trkpt>
      <trkpt lat="47.02194" lon="-1.11084">
        <ele>90</ele>
        <time>2021-04-25T18:38:53Z</time>
      </trkpt>
      <trkpt lat="47.02214" lon="-1.11073">
        <ele>90</ele>
        <time>2021-04-25T18:39:21Z</time>
      </trkpt>
      <trkpt lat="47.02304" lon="-1.10971">
        <ele>89</ele>
        <time>2021-04-25T18:41:53Z</time>
      </trkpt>
      <trkpt lat="47.02322" lon="-1.10963">
        <ele>88</ele>
        <time>2021-04-25T18:42:18Z</time>
      </trkpt>
      <trkpt lat="47.02353" lon="-1.10985">
        <ele>86</ele>
        <time>2021-04-25T18:43:04Z</time>
      </trkpt>
      <trkpt lat="47.02372" lon="-1.11008">
        <ele>85</ele>
        <time>2021-04-25T18:43:37Z</time>
      </trkpt>
      <trkpt lat="47.02376" lon="-1.1101">
        <ele>85</ele>
        <time>2021-04-25T18:43:43Z</time>
      </trkpt>
      <trkpt lat="47.02387" lon="-1.11006">
        <ele>85</ele>
        <time>2021-04-25T18:43:58Z</time>
      </trkpt>
      <trkpt lat="47.0241" lon="-1.10987">
        <ele>85</ele>
        <time>2021-04-25T18:44:33Z</time>
      </trkpt>
      <trkpt lat="47.02466" lon="-1.10948">
        <ele>86</ele>
        <time>2021-04-25T18:45:56Z</time>
      </trkpt>
      <trkpt lat="47.0251" lon="-1.10938">
        <ele>86</ele>
        <time>2021-04-25T18:46:55Z</time>
      </trkpt>
      <trkpt lat="47.02585" lon="-1.10899">
        <ele>87</ele>
        <time>2021-04-25T18:48:41Z</time>
      </trkpt>
      <trkpt lat="47.02632" lon="-1.10882">
        <ele>87</ele>
        <time>2021-04-25T18:49:46Z</time>
      </trkpt>
      <trkpt lat="47.02698" lon="-1.10869">
        <ele>89</ele>
        <time>2021-04-25T18:51:15Z</time>
      </trkpt>
      <trkpt lat="47.02719" lon="-1.10861">
        <ele>90</ele>
        <time>2021-04-25T18:51:44Z</time>
      </trkpt>
      <trkpt lat="47.02798" lon="-1.1082">
        <ele>93</ele>
        <time>2021-04-25T18:53:35Z</time>
      </trkpt>
      <trkpt lat="47.02807" lon="-1.10814">
        <ele>94</ele>
        <time>2021-04-25T18:53:49Z</time>
      </trkpt>
      <trkpt lat="47.02844" lon="-1.10778">
        <ele>95</ele>
        <time>2021-04-25T18:54:48Z</time>
      </trkpt>
      <trkpt lat="47.02883" lon="-1.10753">
        <ele>96</ele>
        <time>2021-04-25T18:55:45Z</time>
      </trkpt>
      <trkpt lat="47.02946" lon="-1.10727">
        <ele>98</ele>
        <time>2021-04-25T18:57:12Z</time>
      </trkpt>
      <trkpt lat="47.03019" lon="-1.10711">
        <ele>100</ele>
        <time>2021-04-25T18:58:51Z</time>
      </trkpt>
      <trkpt lat="47.0307" lon="-1.10684">
        <ele>100</ele>
        <time>2021-04-25T19:00:03Z</time>
      </trkpt>
      <trkpt lat="47.0312" lon="-1.10654">
        <ele>100</ele>
        <time>2021-04-25T19:01:15Z</time>
      </trkpt>
      <trkpt lat="47.03173" lon="-1.10627">
        <ele>101</ele>
        <time>2021-04-25T19:02:30Z</time>
      </trkpt>
      <trkpt lat="47.03227" lon="-1.10608">
        <ele>102</ele>
        <time>2021-04-25T19:03:44Z</time>
      </trkpt>
      <trkpt lat="47.03331" lon="-1.10583">
        <ele>105</ele>
        <time>2021-04-25T19:06:05Z</time>
      </trkpt>
      <trkpt lat="47.03352" lon="-1.10584">
        <ele>105</ele>
        <time>2021-04-25T19:06:33Z</time>
      </trkpt>
      <trkpt lat="47.03374" lon="-1.10589">
        <ele>106</ele>
        <time>2021-04-25T19:07:02Z</time>
      </trkpt>
      <trkpt lat="47.03394" lon="-1.10578">
        <ele>107</ele>
        <time>2021-04-25T19:07:31Z</time>
      </trkpt>
      <trkpt lat="47.03426" lon="-1.1054">
        <ele>108</ele>
        <time>2021-04-25T19:08:26Z</time>
      </trkpt>
      <trkpt lat="47.03438" lon="-1.10524">
        <ele>109</ele>
        <time>2021-04-25T19:08:47Z</time>
      </trkpt>
      <trkpt lat="47.03452" lon="-1.10495">
        <ele>110</ele>
        <time>2021-04-25T19:09:20Z</time>
      </trkpt>
      <trkpt lat="47.0346" lon="-1.10485">
        <ele>110</ele>
        <time>2021-04-25T19:09:34Z</time>
      </trkpt>
      <trkpt lat="47.03467" lon="-1.10485">
        <ele>110</ele>
        <time>2021-04-25T19:09:43Z</time>
      </trkpt>
      <trkpt lat="47.03495" lon="-1.10477">
        <ele>111</ele>
        <time>2021-04-25T19:10:21Z</time>
      </trkpt>
      <trkpt lat="47.03541" lon="-1.10471">
        <ele>111</ele>
        <time>2021-04-25T19:11:23Z</time>
      </trkpt>
      <trkpt lat="47.03565" lon="-1.10458">
        <ele>111</ele>
        <time>2021-04-25T19:11:57Z</time>
      </trkpt>
      <trkpt lat="47.03588" lon="-1.10449">
        <ele>111</ele>
        <time>2021-04-25T19:12:29Z</time>
      </trkpt>
      <trkpt lat="47.0364" lon="-1.10405">
        <ele>110</ele>
        <time>2021-04-25T19:13:49Z</time>
      </trkpt>
      <trkpt lat="47.03666" lon="-1.10388">
        <ele>110</ele>
        <time>2021-04-25T19:14:27Z</time>
      </trkpt>
      <trkpt lat="47.03692" lon="-1.10381">
        <ele>110</ele>
        <time>2021-04-25T19:15:02Z</time>
      </trkpt>
      <trkpt lat="47.03718" lon="-1.10378">
        <ele>109</ele>
        <time>2021-04-25T19:15:37Z</time>
      </trkpt>
      <trkpt lat="47.03742" lon="-1.1038">
        <ele>109</ele>
        <time>2021-04-25T19:16:09Z</time>
      </trkpt>
      <trkpt lat="47.03765" lon="-1.10378">
        <ele>109</ele>
        <time>2021-04-25T19:16:40Z</time>
      </trkpt>
      <trkpt lat="47.03858" lon="-1.10359">
        <ele>109</ele>
        <time>2021-04-25T19:18:45Z</time>
      </trkpt>
      <trkpt lat="47.03913" lon="-1.10354">
        <ele>109</ele>
        <time>2021-04-25T19:19:59Z</time>
      </trkpt>
      <trkpt lat="47.041" lon="-1.1028">
        <ele>106</ele>
        <time>2021-04-25T19:24:17Z</time>
      </trkpt>
      <trkpt lat="47.04165" lon="-1.1025">
        <ele>105</ele>
        <time>2021-04-25T19:25:48Z</time>
      </trkpt>
      <trkpt lat="47.04218" lon="-1.10233">
        <ele>104</ele>
        <time>2021-04-25T19:27:00Z</time>
      </trkpt>
      <trkpt lat="47.04242" lon="-1.10228">
        <ele>103</ele>
        <time>2021-04-25T19:27:33Z</time>
      </trkpt>
      <trkpt lat="47.04269" lon="-1.10217">
        <ele>103</ele>
        <time>2021-04-25T19:28:10Z</time>
      </trkpt>
      <trkpt lat="47.04308" lon="-1.10195">
        <ele>103</ele>
        <time>2021-04-25T19:29:06Z</time>
      </trkpt>
      <trkpt lat="47.04315" lon="-1.10195">
        <ele>104</ele>
        <time>2021-04-25T19:29:15Z</time>
      </trkpt>
      <trkpt lat="47.04387" lon="-1.10164">
        <ele>103</ele>
        <time>2021-04-25T19:30:55Z</time>
      </trkpt>
      <trkpt lat="47.04444" lon="-1.10129">
        <ele>104</ele>
        <time>2021-04-25T19:32:18Z</time>
      </trkpt>
      <trkpt lat="47.04516" lon="-1.10074">
        <ele>104</ele>
        <time>2021-04-25T19:34:06Z</time>
      </trkpt>
      <trkpt lat="47.04541" lon="-1.10063">
        <ele>103</ele>
        <time>2021-04-25T19:34:41Z</time>
      </trkpt>
      <trkpt lat="47.04565" lon="-1.10049">
        <ele>103</ele>
        <time>2021-04-25T19:35:15Z</time>
      </trkpt>
      <trkpt lat="47.04594" lon="-1.10021">
        <ele>103</ele>
        <time>2021-04-25T19:36:02Z</time>
      </trkpt>
      <trkpt lat="47.04622" lon="-1.10004">
        <ele>102</ele>
        <time>2021-04-25T19:36:42Z</time>
      </trkpt>
      <trkpt lat="47.04639" lon="-1.09962">
        <ele>103</ele>
        <time>2021-04-25T19:37:27Z</time>
      </trkpt>
      <trkpt lat="47.0466" lon="-1.09884">
        <ele>103</ele>
        <time>2021-04-25T19:38:43Z</time>
      </trkpt>
      <trkpt lat="47.04673" lon="-1.09804">
        <ele>105</ele>
        <time>2021-04-25T19:39:58Z</time>
      </trkpt>
      <trkpt lat="47.04665" lon="-1.09641">
        <ele>109</ele>
        <time>2021-04-25T19:42:26Z</time>
      </trkpt>
      <trkpt lat="47.04669" lon="-1.09581">
        <ele>109</ele>
        <time>2021-04-25T19:43:21Z</time>
      </trkpt>
      <trkpt lat="47.04668" lon="-1.09541">
        <ele>110</ele>
        <time>2021-04-25T19:43:57Z</time>
      </trkpt>
      <trkpt lat="47.04658" lon="-1.09442">
        <ele>111</ele>
        <time>2021-04-25T19:45:28Z</time>
      </trkpt>
      <trkpt lat="47.04656" lon="-1.09345">
        <ele>115</ele>
        <time>2021-04-25T19:46:57Z</time>
      </trkpt>
      <trkpt lat="47.04646" lon="-1.09312">
        <ele>115</ele>
        <time>2021-04-25T19:47:30Z</time>
      </trkpt>
      <trkpt lat="47.04623" lon="-1.09261">
        <ele>116</ele>
        <time>2021-04-25T19:48:25Z</time>
      </trkpt>
      <trkpt lat="47.04594" lon="-1.09218">
        <ele>116</ele>
        <time>2021-04-25T19:49:20Z</time>
      </trkpt>
      <trkpt lat="47.04564" lon="-1.09163">
        <ele>116</ele>
        <time>2021-04-25T19:50:24Z</time>
      </trkpt>
      <trkpt lat="47.04543" lon="-1.09133">
        <ele>115</ele>
        <time>2021-04-25T19:51:03Z</time>
      </trkpt>
      <trkpt lat="47.04507" lon="-1.09067">
        <ele>114</ele>
        <time>2021-04-25T19:52:20Z</time>
      </trkpt>
      <trkpt lat="47.04498" lon="-1.09029">
        <ele>115</ele>
        <time>2021-04-25T19:52:57Z</time>
      </trkpt>
      <trkpt lat="47.04473" lon="-1.0895">
        <ele>115</ele>
        <time>2021-04-25T19:54:16Z</time>
      </trkpt>
      <trkpt lat="47.04455" lon="-1.08905">
        <ele>114</ele>
        <time>2021-04-25T19:55:03Z</time>
      </trkpt>
      <trkpt lat="47.04424" lon="-1.08851">
        <ele>113</ele>
        <time>2021-04-25T19:56:08Z</time>
      </trkpt>
      <trkpt lat="47.04396" lon="-1.08819">
        <ele>112</ele>
        <time>2021-04-25T19:56:55Z</time>
      </trkpt>
      <trkpt lat="47.04359" lon="-1.08785">
        <ele>110</ele>
        <time>2021-04-25T19:57:53Z</time>
      </trkpt>
      <trkpt lat="47.04294" lon="-1.08706">
        <ele>110</ele>
        <time>2021-04-25T19:59:46Z</time>
      </trkpt>
      <trkpt lat="47.04227" lon="-1.08635">
        <ele>111</ele>
        <time>2021-04-25T20:01:36Z</time>
      </trkpt>
      <trkpt lat="47.04187" lon="-1.08589">
        <ele>112</ele>
        <time>2021-04-25T20:02:44Z</time>
      </trkpt>
      <trkpt lat="47.04123" lon="-1.08501">
        <ele>114</ele>
        <time>2021-04-25T20:04:41Z</time>
      </trkpt>
      <trkpt lat="47.04076" lon="-1.08426">
        <ele>116</ele>
        <time>2021-04-25T20:06:14Z</time>
      </trkpt>
      <trkpt lat="47.03938" lon="-1.08234">
        <ele>120</ele>
        <time>2021-04-25T20:10:27Z</time>
      </trkpt>
      <trkpt lat="47.03881" lon="-1.08161">
        <ele>120</ele>
        <time>2021-04-25T20:12:08Z</time>
      </trkpt>
      <trkpt lat="47.0387" lon="-1.0815">
        <ele>120</ele>
        <time>2021-04-25T20:12:26Z</time>
      </trkpt>
      <trkpt lat="47.03856" lon="-1.08161">
        <ele>120</ele>
        <time>2021-04-25T20:12:47Z</time>
      </trkpt>
      <trkpt lat="47.03849" lon="-1.0817">
        <ele>120</ele>
        <time>2021-04-25T20:13:00Z</time>
      </trkpt>
      <trkpt lat="47.03806" lon="-1.08237">
        <ele>119</ele>
        <time>2021-04-25T20:14:23Z</time>
      </trkpt>
      <trkpt lat="47.03795" lon="-1.08259">
        <ele>119</ele>
        <time>2021-04-25T20:14:48Z</time>
      </trkpt>
      <trkpt lat="47.03729" lon="-1.08366">
        <ele>117</ele>
        <time>2021-04-25T20:17:00Z</time>
      </trkpt>
      <trkpt lat="47.03726" lon="-1.08375">
        <ele>117</ele>
        <time>2021-04-25T20:17:09Z</time>
      </trkpt>
      <trkpt lat="47.03729" lon="-1.08386">
        <ele>117</ele>
        <time>2021-04-25T20:17:19Z</time>
      </trkpt>
      <trkpt lat="47.03753" lon="-1.08411">
        <ele>118</ele>
        <time>2021-04-25T20:17:59Z</time>
      </trkpt>
      <trkpt lat="47.03771" lon="-1.08438">
        <ele>118</ele>
        <time>2021-04-25T20:18:33Z</time>
      </trkpt>
      <trkpt lat="47.03753" lon="-1.08523">
        <ele>117</ele>
        <time>2021-04-25T20:19:54Z</time>
      </trkpt>
      <trkpt lat="47.03754" lon="-1.08528">
        <ele>117</ele>
        <time>2021-04-25T20:19:59Z</time>
      </trkpt>
      <trkpt lat="47.03756" lon="-1.08528">
        <ele>117</ele>
        <time>2021-04-25T20:20:01Z</time>
      </trkpt>
      <trkpt lat="47.03749" lon="-1.08539">
        <ele>117</ele>
        <time>2021-04-25T20:20:15Z</time>
      </trkpt>
      <trkpt lat="47.03729" lon="-1.08624">
        <ele>116</ele>
        <time>2021-04-25T20:21:37Z</time>
      </trkpt>
      <trkpt lat="47.03675" lon="-1.0876">
        <ele>117</ele>
        <time>2021-04-25T20:24:00Z</time>
      </trkpt>
      <trkpt lat="47.03658" lon="-1.0879">
        <ele>116</ele>
        <time>2021-04-25T20:24:36Z</time>
      </trkpt>
      <trkpt lat="47.03569" lon="-1.08922">
        <ele>116</ele>
        <time>2021-04-25T20:27:24Z</time>
      </trkpt>
      <trkpt lat="47.03527" lon="-1.08991">
        <ele>117</ele>
        <time>2021-04-25T20:28:49Z</time>
      </trkpt>
      <trkpt lat="47.03527" lon="-1.08995">
        <ele>117</ele>
        <time>2021-04-25T20:28:52Z</time>
      </trkpt>
      <trkpt lat="47.03509" lon="-1.09017">
        <ele>117</ele>
        <time>2021-04-25T20:29:23Z</time>
      </trkpt>
      <trkpt lat="47.03388" lon="-1.09206">
        <ele>115</ele>
        <time>2021-04-25T20:33:19Z</time>
      </trkpt>
      <trkpt lat="47.0333" lon="-1.09287">
        <ele>115</ele>
        <time>2021-04-25T20:35:06Z</time>
      </trkpt>
      <trkpt lat="47.03318" lon="-1.09312">
        <ele>114</ele>
        <time>2021-04-25T20:35:34Z</time>
      </trkpt>
      <trkpt lat="47.03313" lon="-1.09317">
        <ele>114</ele>
        <time>2021-04-25T20:35:42Z</time>
      </trkpt>
      <trkpt lat="47.03296" lon="-1.09293">
        <ele>114</ele>
        <time>2021-04-25T20:36:13Z</time>
      </trkpt>
      <trkpt lat="47.03285" lon="-1.09259">
        <ele>114</ele>
        <time>2021-04-25T20:36:48Z</time>
      </trkpt>
      <trkpt lat="47.0327" lon="-1.09191">
        <ele>115</ele>
        <time>2021-04-25T20:37:53Z</time>
      </trkpt>
      <trkpt lat="47.03266" lon="-1.09157">
        <ele>115</ele>
        <time>2021-04-25T20:38:24Z</time>
      </trkpt>
      <trkpt lat="47.03257" lon="-1.09128">
        <ele>115</ele>
        <time>2021-04-25T20:38:53Z</time>
      </trkpt>
      <trkpt lat="47.03252" lon="-1.09131">
        <ele>115</ele>
        <time>2021-04-25T20:39:00Z</time>
      </trkpt>
      <trkpt lat="47.0324" lon="-1.09153">
        <ele>115</ele>
        <time>2021-04-25T20:39:26Z</time>
      </trkpt>
      <trkpt lat="47.03233" lon="-1.09179">
        <ele>115</ele>
        <time>2021-04-25T20:39:51Z</time>
      </trkpt>
      <trkpt lat="47.03235" lon="-1.09198">
        <ele>115</ele>
        <time>2021-04-25T20:40:09Z</time>
      </trkpt>
      <trkpt lat="47.03241" lon="-1.092">
        <ele>115</ele>
        <time>2021-04-25T20:40:17Z</time>
      </trkpt>
      <trkpt lat="47.03244" lon="-1.09198">
        <ele>115</ele>
        <time>2021-04-25T20:40:21Z</time>
      </trkpt>
      <trkpt lat="47.03245" lon="-1.09202">
        <ele>115</ele>
        <time>2021-04-25T20:40:25Z</time>
      </trkpt>
      <trkpt lat="47.0324" lon="-1.092">
        <ele>115</ele>
        <time>2021-04-25T20:40:32Z</time>
      </trkpt>
      <trkpt lat="47.03238" lon="-1.09202">
        <ele>115</ele>
        <time>2021-04-25T20:40:35Z</time>
      </trkpt>
      <trkpt lat="47.03223" lon="-1.09184">
        <ele>115</ele>
        <time>2021-04-25T20:41:01Z</time>
      </trkpt>
      <trkpt lat="47.03216" lon="-1.0919">
        <ele>115</ele>
        <time>2021-04-25T20:41:12Z</time>
      </trkpt>
      <trkpt lat="47.03213" lon="-1.09187">
        <ele>116</ele>
        <time>2021-04-25T20:41:17Z</time>
      </trkpt>
      <trkpt lat="47.03201" lon="-1.09187">
        <ele>116</ele>
        <time>2021-04-25T20:41:33Z</time>
      </trkpt>
      <trkpt lat="47.03188" lon="-1.09191">
        <ele>116</ele>
        <time>2021-04-25T20:41:51Z</time>
      </trkpt>
      <trkpt lat="47.03179" lon="-1.09198">
        <ele>116</ele>
        <time>2021-04-25T20:42:04Z</time>
      </trkpt>
      <trkpt lat="47.03173" lon="-1.09197">
        <ele>116</ele>
        <time>2021-04-25T20:42:12Z</time>
      </trkpt>
      <trkpt lat="47.03165" lon="-1.09221">
        <ele>116</ele>
        <time>2021-04-25T20:42:37Z</time>
      </trkpt>
      <trkpt lat="47.03167" lon="-1.09225">
        <ele>116</ele>
        <time>2021-04-25T20:42:41Z</time>
      </trkpt>
      <trkpt lat="47.03129" lon="-1.09247">
        <ele>114</ele>
        <time>2021-04-25T20:43:36Z</time>
      </trkpt>
      <trkpt lat="47.03015" lon="-1.09301">
        <ele>110</ele>
        <time>2021-04-25T20:46:16Z</time>
      </trkpt>
      <trkpt lat="47.02975" lon="-1.09318">
        <ele>109</ele>
        <time>2021-04-25T20:47:11Z</time>
      </trkpt>
      <trkpt lat="47.02957" lon="-1.09321">
        <ele>109</ele>
        <time>2021-04-25T20:47:35Z</time>
      </trkpt>
      <trkpt lat="47.02934" lon="-1.09336">
        <ele>109</ele>
        <time>2021-04-25T20:48:09Z</time>
      </trkpt>
      <trkpt lat="47.02878" lon="-1.09364">
        <ele>110</ele>
        <time>2021-04-25T20:49:28Z</time>
      </trkpt>
      <trkpt lat="47.02819" lon="-1.09387">
        <ele>110</ele>
        <time>2021-04-25T20:50:49Z</time>
      </trkpt>
      <trkpt lat="47.02768" lon="-1.0941">
        <ele>110</ele>
        <time>2021-04-25T20:52:01Z</time>
      </trkpt>
      <trkpt lat="47.02751" lon="-1.09421">
        <ele>110</ele>
        <time>2021-04-25T20:52:25Z</time>
      </trkpt>
      <trkpt lat="47.02696" lon="-1.09438">
        <ele>110</ele>
        <time>2021-04-25T20:53:40Z</time>
      </trkpt>
      <trkpt lat="47.02659" lon="-1.09455">
        <ele>111</ele>
        <time>2021-04-25T20:54:32Z</time>
      </trkpt>
      <trkpt lat="47.02584" lon="-1.09497">
        <ele>112</ele>
        <time>2021-04-25T20:56:19Z</time>
      </trkpt>
      <trkpt lat="47.02549" lon="-1.0951">
        <ele>112</ele>
        <time>2021-04-25T20:57:07Z</time>
      </trkpt>
      <trkpt lat="47.02528" lon="-1.09521">
        <ele>112</ele>
        <time>2021-04-25T20:57:37Z</time>
      </trkpt>
      <trkpt lat="47.02491" lon="-1.09528">
        <ele>112</ele>
        <time>2021-04-25T20:58:27Z</time>
      </trkpt>
      <trkpt lat="47.02472" lon="-1.09541">
        <ele>112</ele>
        <time>2021-04-25T20:58:55Z</time>
      </trkpt>
      <trkpt lat="47.02436" lon="-1.09559">
        <ele>112</ele>
        <time>2021-04-25T20:59:46Z</time>
      </trkpt>
      <trkpt lat="47.02368" lon="-1.09586">
        <ele>107</ele>
        <time>2021-04-25T21:01:20Z</time>
      </trkpt>
      <trkpt lat="47.02163" lon="-1.09675">
        <ele>100</ele>
        <time>2021-04-25T21:06:05Z</time>
      </trkpt>
      <trkpt lat="47.0212" lon="-1.0969">
        <ele>100</ele>
        <time>2021-04-25T21:07:04Z</time>
      </trkpt>
      <trkpt lat="47.02096" lon="-1.09702">
        <ele>99</ele>
        <time>2021-04-25T21:07:38Z</time>
      </trkpt>
      <trkpt lat="47.01822" lon="-1.09816">
        <ele>92</ele>
        <time>2021-04-25T21:13:58Z</time>
      </trkpt>
      <trkpt lat="47.01812" lon="-1.09812">
        <ele>92</ele>
        <time>2021-04-25T21:14:12Z</time>
      </trkpt>
      <trkpt lat="47.01798" lon="-1.09718">
        <ele>93</ele>
        <time>2021-04-25T21:15:39Z</time>
      </trkpt>
      <trkpt lat="47.01792" lon="-1.09654">
        <ele>92</ele>
        <time>2021-04-25T21:16:38Z</time>
      </trkpt>
      <trkpt lat="47.01783" lon="-1.09626">
        <ele>92</ele>
        <time>2021-04-25T21:17:06Z</time>
      </trkpt>
      <trkpt lat="47.01776" lon="-1.09593">
        <ele>91</ele>
        <time>2021-04-25T21:17:38Z</time>
      </trkpt>
      <trkpt lat="47.01758" lon="-1.09429">
        <ele>87</ele>
        <time>2021-04-25T21:20:09Z</time>
      </trkpt>
      <trkpt lat="47.01758" lon="-1.09422">
        <ele>87</ele>
        <time>2021-04-25T21:20:15Z</time>
      </trkpt>
      <trkpt lat="47.01785" lon="-1.09406">
        <ele>87</ele>
        <time>2021-04-25T21:20:54Z</time>
      </trkpt>
      <trkpt lat="47.01795" lon="-1.09391">
        <ele>87</ele>
        <time>2021-04-25T21:21:13Z</time>
      </trkpt>
      <trkpt lat="47.01797" lon="-1.09383">
        <ele>87</ele>
        <time>2021-04-25T21:21:21Z</time>
      </trkpt>
      <trkpt lat="47.01788" lon="-1.0936">
        <ele>86</ele>
        <time>2021-04-25T21:21:45Z</time>
      </trkpt>
      <trkpt lat="47.01777" lon="-1.09342">
        <ele>86</ele>
        <time>2021-04-25T21:22:07Z</time>
      </trkpt>
      <trkpt lat="47.01768" lon="-1.09297">
        <ele>87</ele>
        <time>2021-04-25T21:22:50Z</time>
      </trkpt>
      <trkpt lat="47.01765" lon="-1.09195">
        <ele>90</ele>
        <time>2021-04-25T21:24:22Z</time>
      </trkpt>
      <trkpt lat="47.01777" lon="-1.09146">
        <ele>89</ele>
        <time>2021-04-25T21:25:10Z</time>
      </trkpt>
      <trkpt lat="47.01792" lon="-1.09108">
        <ele>88</ele>
        <time>2021-04-25T21:25:50Z</time>
      </trkpt>
      <trkpt lat="47.01798" lon="-1.09084">
        <ele>88</ele>
        <time>2021-04-25T21:26:13Z</time>
      </trkpt>
      <trkpt lat="47.01809" lon="-1.0906">
        <ele>86</ele>
        <time>2021-04-25T21:26:39Z</time>
      </trkpt>
      <trkpt lat="47.01836" lon="-1.09023">
        <ele>84</ele>
        <time>2021-04-25T21:27:29Z</time>
      </trkpt>
      <trkpt lat="47.01856" lon="-1.09008">
        <ele>83</ele>
        <time>2021-04-25T21:27:59Z</time>
      </trkpt>
      <trkpt lat="47.01871" lon="-1.09003">
        <ele>83</ele>
        <time>2021-04-25T21:28:19Z</time>
      </trkpt>
      <trkpt lat="47.01872" lon="-1.08995">
        <ele>82</ele>
        <time>2021-04-25T21:28:27Z</time>
      </trkpt>
      <trkpt lat="47.01861" lon="-1.0898">
        <ele>80</ele>
        <time>2021-04-25T21:28:47Z</time>
      </trkpt>
      <trkpt lat="47.01855" lon="-1.08976">
        <ele>80</ele>
        <time>2021-04-25T21:28:55Z</time>
      </trkpt>
      <trkpt lat="47.01851" lon="-1.08977">
        <ele>80</ele>
        <time>2021-04-25T21:29:01Z</time>
      </trkpt>
      <trkpt lat="47.01851" lon="-1.08979">
        <ele>80</ele>
        <time>2021-04-25T21:29:03Z</time>
      </trkpt>
      <trkpt lat="47.01759" lon="-1.08961">
        <ele>73</ele>
        <time>2021-04-25T21:31:07Z</time>
      </trkpt>
      <trkpt lat="47.01741" lon="-1.08954">
        <ele>70</ele>
        <time>2021-04-25T21:31:31Z</time>
      </trkpt>
      <trkpt lat="47.01724" lon="-1.08942">
        <ele>67</ele>
        <time>2021-04-25T21:31:57Z</time>
      </trkpt>
      <trkpt lat="47.01711" lon="-1.08938">
        <ele>65</ele>
        <time>2021-04-25T21:32:14Z</time>
      </trkpt>
      <trkpt lat="47.01678" lon="-1.08936">
        <ele>62</ele>
        <time>2021-04-25T21:32:58Z</time>
      </trkpt>
      <trkpt lat="47.01663" lon="-1.08943">
        <ele>61</ele>
        <time>2021-04-25T21:33:19Z</time>
      </trkpt>
      <trkpt lat="47.01651" lon="-1.08956">
        <ele>62</ele>
        <time>2021-04-25T21:33:39Z</time>
      </trkpt>
      <trkpt lat="47.0164" lon="-1.08974">
        <ele>62</ele>
        <time>2021-04-25T21:34:01Z</time>
      </trkpt>
      <trkpt lat="47.0163" lon="-1.09021">
        <ele>63</ele>
        <time>2021-04-25T21:34:46Z</time>
      </trkpt>
      <trkpt lat="47.01598" lon="-1.09039">
        <ele>59</ele>
        <time>2021-04-25T21:35:32Z</time>
      </trkpt>
      <trkpt lat="47.01585" lon="-1.09041">
        <ele>57</ele>
        <time>2021-04-25T21:35:49Z</time>
      </trkpt>
      <trkpt lat="47.01575" lon="-1.09051">
        <ele>56</ele>
        <time>2021-04-25T21:36:05Z</time>
      </trkpt>
      <trkpt lat="47.01566" lon="-1.09041">
        <ele>55</ele>
        <time>2021-04-25T21:36:20Z</time>
      </trkpt>
      <trkpt lat="47.01549" lon="-1.09013">
        <ele>55</ele>
        <time>2021-04-25T21:36:55Z</time>
      </trkpt>
      <trkpt lat="47.01535" lon="-1.08999">
        <ele>54</ele>
        <time>2021-04-25T21:37:17Z</time>
      </trkpt>
      <trkpt lat="47.0152" lon="-1.08976">
        <ele>55</ele>
        <time>2021-04-25T21:37:46Z</time>
      </trkpt>
      <trkpt lat="47.01516" lon="-1.08963">
        <ele>55</ele>
        <time>2021-04-25T21:37:59Z</time>
      </trkpt>
      <trkpt lat="47.0149" lon="-1.08921">
        <ele>57</ele>
        <time>2021-04-25T21:38:51Z</time>
      </trkpt>
      <trkpt lat="47.01455" lon="-1.08854">
        <ele>60</ele>
        <time>2021-04-25T21:40:07Z</time>
      </trkpt>
      <trkpt lat="47.01426" lon="-1.08821">
        <ele>57</ele>
        <time>2021-04-25T21:40:56Z</time>
      </trkpt>
      <trkpt lat="47.01403" lon="-1.08788">
        <ele>57</ele>
        <time>2021-04-25T21:41:39Z</time>
      </trkpt>
      <trkpt lat="47.01386" lon="-1.08768">
        <ele>57</ele>
        <time>2021-04-25T21:42:08Z</time>
      </trkpt>
      <trkpt lat="47.01364" lon="-1.08754">
        <ele>56</ele>
        <time>2021-04-25T21:42:41Z</time>
      </trkpt>
      <trkpt lat="47.0133" lon="-1.08696">
        <ele>58</ele>
        <time>2021-04-25T21:43:50Z</time>
      </trkpt>
      <trkpt lat="47.01311" lon="-1.08678">
        <ele>59</ele>
        <time>2021-04-25T21:44:20Z</time>
      </trkpt>
      <trkpt lat="47.01298" lon="-1.08649">
        <ele>59</ele>
        <time>2021-04-25T21:44:52Z</time>
      </trkpt>
      <trkpt lat="47.01281" lon="-1.0862">
        <ele>59</ele>
        <time>2021-04-25T21:45:27Z</time>
      </trkpt>
      <trkpt lat="47.01279" lon="-1.08586">
        <ele>60</ele>
        <time>2021-04-25T21:45:58Z</time>
      </trkpt>
      <trkpt lat="47.01264" lon="-1.08567">
        <ele>58</ele>
        <time>2021-04-25T21:46:24Z</time>
      </trkpt>
      <trkpt lat="47.01252" lon="-1.08538">
        <ele>58</ele>
        <time>2021-04-25T21:46:55Z</time>
      </trkpt>
      <trkpt lat="47.01238" lon="-1.08519">
        <ele>58</ele>
        <time>2021-04-25T21:47:20Z</time>
      </trkpt>
      <trkpt lat="47.01226" lon="-1.08492">
        <ele>58</ele>
        <time>2021-04-25T21:47:50Z</time>
      </trkpt>
      <trkpt lat="47.01221" lon="-1.08441">
        <ele>57</ele>
        <time>2021-04-25T21:48:37Z</time>
      </trkpt>
      <trkpt lat="47.01237" lon="-1.0841">
        <ele>57</ele>
        <time>2021-04-25T21:49:12Z</time>
      </trkpt>
      <trkpt lat="47.01245" lon="-1.08401">
        <ele>56</ele>
        <time>2021-04-25T21:49:26Z</time>
      </trkpt>
      <trkpt lat="47.01248" lon="-1.08388">
        <ele>56</ele>
        <time>2021-04-25T21:49:38Z</time>
      </trkpt>
      <trkpt lat="47.01247" lon="-1.08382">
        <ele>55</ele>
        <time>2021-04-25T21:49:44Z</time>
      </trkpt>
      <trkpt lat="47.01252" lon="-1.08389">
        <ele>56</ele>
        <time>2021-04-25T21:49:53Z</time>
      </trkpt>
      <trkpt lat="47.01259" lon="-1.08377">
        <ele>57</ele>
        <time>2021-04-25T21:50:07Z</time>
      </trkpt>
      <trkpt lat="47.01242" lon="-1.08348">
        <ele>54</ele>
        <time>2021-04-25T21:50:42Z</time>
      </trkpt>
      <trkpt lat="47.01243" lon="-1.08338">
        <ele>54</ele>
        <time>2021-04-25T21:50:51Z</time>
      </trkpt>
      <trkpt lat="47.01239" lon="-1.08334">
        <ele>54</ele>
        <time>2021-04-25T21:50:58Z</time>
      </trkpt>
      <trkpt lat="47.01243" lon="-1.08329">
        <ele>53</ele>
        <time>2021-04-25T21:51:05Z</time>
      </trkpt>
      <trkpt lat="47.01242" lon="-1.08334">
        <ele>54</ele>
        <time>2021-04-25T21:51:09Z</time>
      </trkpt>
      <trkpt lat="47.0124" lon="-1.08314">
        <ele>53</ele>
        <time>2021-04-25T21:51:28Z</time>
      </trkpt>
      <trkpt lat="47.01231" lon="-1.08304">
        <ele>54</ele>
        <time>2021-04-25T21:51:43Z</time>
      </trkpt>
      <trkpt lat="47.01217" lon="-1.083">
        <ele>54</ele>
        <time>2021-04-25T21:52:02Z</time>
      </trkpt>
      <trkpt lat="47.01211" lon="-1.08305">
        <ele>55</ele>
        <time>2021-04-25T21:52:11Z</time>
      </trkpt>
      <trkpt lat="47.01215" lon="-1.08309">
        <ele>55</ele>
        <time>2021-04-25T21:52:18Z</time>
      </trkpt>
      <trkpt lat="47.01208" lon="-1.0831">
        <ele>55</ele>
        <time>2021-04-25T21:52:27Z</time>
      </trkpt>
      <trkpt lat="47.01201" lon="-1.08304">
        <ele>55</ele>
        <time>2021-04-25T21:52:38Z</time>
      </trkpt>
      <trkpt lat="47.01191" lon="-1.08304">
        <ele>56</ele>
        <time>2021-04-25T21:52:51Z</time>
      </trkpt>
      <trkpt lat="47.01187" lon="-1.08317">
        <ele>56</ele>
        <time>2021-04-25T21:53:04Z</time>
      </trkpt>
      <trkpt lat="47.0118" lon="-1.08311">
        <ele>57</ele>
        <time>2021-04-25T21:53:15Z</time>
      </trkpt>
      <trkpt lat="47.01179" lon="-1.08314">
        <ele>57</ele>
        <time>2021-04-25T21:53:18Z</time>
      </trkpt>
      <trkpt lat="47.01174" lon="-1.08316">
        <ele>57</ele>
        <time>2021-04-25T21:53:25Z</time>
      </trkpt>
      <trkpt lat="47.01178" lon="-1.08317">
        <ele>57</ele>
        <time>2021-04-25T21:53:30Z</time>
      </trkpt>
      <trkpt lat="47.01159" lon="-1.08324">
        <ele>58</ele>
        <time>2021-04-25T21:53:56Z</time>
      </trkpt>
      <trkpt lat="47.01134" lon="-1.08349">
        <ele>61</ele>
        <time>2021-04-25T21:54:37Z</time>
      </trkpt>
      <trkpt lat="47.01124" lon="-1.08365">
        <ele>62</ele>
        <time>2021-04-25T21:54:57Z</time>
      </trkpt>
      <trkpt lat="47.01095" lon="-1.08394">
        <ele>67</ele>
        <time>2021-04-25T21:55:43Z</time>
      </trkpt>
      <trkpt lat="47.01073" lon="-1.08432">
        <ele>71</ele>
        <time>2021-04-25T21:56:29Z</time>
      </trkpt>
      <trkpt lat="47.0107" lon="-1.08417">
        <ele>70</ele>
        <time>2021-04-25T21:56:43Z</time>
      </trkpt>
      <trkpt lat="47.01069" lon="-1.08378">
        <ele>67</ele>
        <time>2021-04-25T21:57:19Z</time>
      </trkpt>
      <trkpt lat="47.01041" lon="-1.08255">
        <ele>60</ele>
        <time>2021-04-25T21:59:17Z</time>
      </trkpt>
      <trkpt lat="47.01037" lon="-1.08218">
        <ele>59</ele>
        <time>2021-04-25T21:59:51Z</time>
      </trkpt>
      <trkpt lat="47.01033" lon="-1.08208">
        <ele>59</ele>
        <time>2021-04-25T22:00:01Z</time>
      </trkpt>
      <trkpt lat="47.0102" lon="-1.0819">
        <ele>59</ele>
        <time>2021-04-25T22:00:25Z</time>
      </trkpt>
      <trkpt lat="47.0101" lon="-1.08168">
        <ele>59</ele>
        <time>2021-04-25T22:00:49Z</time>
      </trkpt>
      <trkpt lat="47.01005" lon="-1.08143">
        <ele>58</ele>
        <time>2021-04-25T22:01:13Z</time>
      </trkpt>
      <trkpt lat="47.01015" lon="-1.08094">
        <ele>57</ele>
        <time>2021-04-25T22:01:59Z</time>
      </trkpt>
      <trkpt lat="47.01018" lon="-1.08067">
        <ele>58</ele>
        <time>2021-04-25T22:02:24Z</time>
      </trkpt>
      <trkpt lat="47.01016" lon="-1.08017">
        <ele>61</ele>
        <time>2021-04-25T22:03:10Z</time>
      </trkpt>
      <trkpt lat="47.01003" lon="-1.07981">
        <ele>65</ele>
        <time>2021-04-25T22:03:47Z</time>
      </trkpt>
      <trkpt lat="47.00984" lon="-1.07946">
        <ele>70</ele>
        <time>2021-04-25T22:04:28Z</time>
      </trkpt>
      <trkpt lat="47.00965" lon="-1.07862">
        <ele>76</ele>
        <time>2021-04-25T22:05:48Z</time>
      </trkpt>
      <trkpt lat="47.00928" lon="-1.07744">
        <ele>80</ele>
        <time>2021-04-25T22:07:46Z</time>
      </trkpt>
      <trkpt lat="47.00919" lon="-1.07729">
        <ele>80</ele>
        <time>2021-04-25T22:08:04Z</time>
      </trkpt>
      <trkpt lat="47.00908" lon="-1.07718">
        <ele>80</ele>
        <time>2021-04-25T22:08:22Z</time>
      </trkpt>
      <trkpt lat="47.00871" lon="-1.07641">
        <ele>77</ele>
        <time>2021-04-25T22:09:48Z</time>
      </trkpt>
      <trkpt lat="47.0086" lon="-1.07627">
        <ele>79</ele>
        <time>2021-04-25T22:10:07Z</time>
      </trkpt>
      <trkpt lat="47.00835" lon="-1.0761">
        <ele>84</ele>
        <time>2021-04-25T22:10:44Z</time>
      </trkpt>
      <trkpt lat="47.00828" lon="-1.076">
        <ele>84</ele>
        <time>2021-04-25T22:10:57Z</time>
      </trkpt>
      <trkpt lat="47.00817" lon="-1.07574">
        <ele>84</ele>
        <time>2021-04-25T22:11:25Z</time>
      </trkpt>
      <trkpt lat="47.008" lon="-1.0752">
        <ele>83</ele>
        <time>2021-04-25T22:12:19Z</time>
      </trkpt>
      <trkpt lat="47.0078" lon="-1.07474">
        <ele>85</ele>
        <time>2021-04-25T22:13:09Z</time>
      </trkpt>
      <trkpt lat="47.00765" lon="-1.07428">
        <ele>86</ele>
        <time>2021-04-25T22:13:55Z</time>
      </trkpt>
      <trkpt lat="47.00724" lon="-1.07332">
        <ele>87</ele>
        <time>2021-04-25T22:15:38Z</time>
      </trkpt>
      <trkpt lat="47.007" lon="-1.07267">
        <ele>86</ele>
        <time>2021-04-25T22:16:46Z</time>
      </trkpt>
      <trkpt lat="47.00688" lon="-1.07217">
        <ele>87</ele>
        <time>2021-04-25T22:17:34Z</time>
      </trkpt>
      <trkpt lat="47.0067" lon="-1.07119">
        <ele>88</ele>
        <time>2021-04-25T22:19:06Z</time>
      </trkpt>
      <trkpt lat="47.00666" lon="-1.0703">
        <ele>90</ele>
        <time>2021-04-25T22:20:27Z</time>
      </trkpt>
      <trkpt lat="47.00663" lon="-1.07012">
        <ele>90</ele>
        <time>2021-04-25T22:20:44Z</time>
      </trkpt>
      <trkpt lat="47.00666" lon="-1.07005">
        <ele>90</ele>
        <time>2021-04-25T22:20:52Z</time>
      </trkpt>
      <trkpt lat="47.00688" lon="-1.07007">
        <ele>88</ele>
        <time>2021-04-25T22:21:21Z</time>
      </trkpt>
      <trkpt lat="47.00731" lon="-1.07018">
        <ele>85</ele>
        <time>2021-04-25T22:22:19Z</time>
      </trkpt>
      <trkpt lat="47.00779" lon="-1.07027">
        <ele>82</ele>
        <time>2021-04-25T22:23:24Z</time>
      </trkpt>
      <trkpt lat="47.00802" lon="-1.07036">
        <ele>80</ele>
        <time>2021-04-25T22:23:56Z</time>
      </trkpt>
      <trkpt lat="47.00865" lon="-1.0704">
        <ele>74</ele>
        <time>2021-04-25T22:25:20Z</time>
      </trkpt>
      <trkpt lat="47.00891" lon="-1.07039">
        <ele>71</ele>
        <time>2021-04-25T22:25:55Z</time>
      </trkpt>
      <trkpt lat="47.00931" lon="-1.07049">
        <ele>67</ele>
        <time>2021-04-25T22:26:49Z</time>
      </trkpt>
      <trkpt lat="47.0095" lon="-1.07069">
        <ele>65</ele>
        <time>2021-04-25T22:27:20Z</time>
      </trkpt>
      <trkpt lat="47.00956" lon="-1.07079">
        <ele>63</ele>
        <time>2021-04-25T22:27:32Z</time>
      </trkpt>
      <trkpt lat="47.00962" lon="-1.07136">
        <ele>60</ele>
        <time>2021-04-25T22:28:24Z</time>
      </trkpt>
      <trkpt lat="47.00967" lon="-1.07138">
        <ele>60</ele>
        <time>2021-04-25T22:28:31Z</time>
      </trkpt>
      <trkpt lat="47.00988" lon="-1.07134">
        <ele>56</ele>
        <time>2021-04-25T22:29:00Z</time>
      </trkpt>
      <trkpt lat="47.01006" lon="-1.07135">
        <ele>54</ele>
        <time>2021-04-25T22:29:24Z</time>
      </trkpt>
      <trkpt lat="47.01049" lon="-1.07145">
        <ele>53</ele>
        <time>2021-04-25T22:30:22Z</time>
      </trkpt>
      <trkpt lat="47.01059" lon="-1.07137">
        <ele>53</ele>
        <time>2021-04-25T22:30:37Z</time>
      </trkpt>
      <trkpt lat="47.01064" lon="-1.07146">
        <ele>52</ele>
        <time>2021-04-25T22:30:48Z</time>
      </trkpt>
      <trkpt lat="47.01079" lon="-1.07214">
        <ele>54</ele>
        <time>2021-04-25T22:31:53Z</time>
      </trkpt>
      <trkpt lat="47.0111" lon="-1.07387">
        <ele>62</ele>
        <time>2021-04-25T22:34:35Z</time>
      </trkpt>
      <trkpt lat="47.01116" lon="-1.07405">
        <ele>62</ele>
        <time>2021-04-25T22:34:54Z</time>
      </trkpt>
      <trkpt lat="47.01131" lon="-1.07472">
        <ele>66</ele>
        <time>2021-04-25T22:35:58Z</time>
      </trkpt>
      <trkpt lat="47.01144" lon="-1.07506">
        <ele>68</ele>
        <time>2021-04-25T22:36:33Z</time>
      </trkpt>
      <trkpt lat="47.01135" lon="-1.07542">
        <ele>66</ele>
        <time>2021-04-25T22:37:08Z</time>
      </trkpt>
      <trkpt lat="47.01139" lon="-1.07555">
        <ele>66</ele>
        <time>2021-04-25T22:37:21Z</time>
      </trkpt>
      <trkpt lat="47.01136" lon="-1.07586">
        <ele>65</ele>
        <time>2021-04-25T22:37:50Z</time>
      </trkpt>
      <trkpt lat="47.01141" lon="-1.0766">
        <ele>63</ele>
        <time>2021-04-25T22:38:57Z</time>
      </trkpt>
      <trkpt lat="47.01145" lon="-1.07675">
        <ele>63</ele>
        <time>2021-04-25T22:39:12Z</time>
      </trkpt>
      <trkpt lat="47.01159" lon="-1.07678">
        <ele>65</ele>
        <time>2021-04-25T22:39:31Z</time>
      </trkpt>
      <trkpt lat="47.01171" lon="-1.07696">
        <ele>66</ele>
        <time>2021-04-25T22:39:54Z</time>
      </trkpt>
      <trkpt lat="47.0117" lon="-1.07715">
        <ele>65</ele>
        <time>2021-04-25T22:40:11Z</time>
      </trkpt>
      <trkpt lat="47.01156" lon="-1.07744">
        <ele>62</ele>
        <time>2021-04-25T22:40:43Z</time>
      </trkpt>
      <trkpt lat="47.01155" lon="-1.07772">
        <ele>61</ele>
        <time>2021-04-25T22:41:09Z</time>
      </trkpt>
      <trkpt lat="47.01159" lon="-1.07802">
        <ele>60</ele>
        <time>2021-04-25T22:41:37Z</time>
      </trkpt>
      <trkpt lat="47.01165" lon="-1.07825">
        <ele>59</ele>
        <time>2021-04-25T22:41:59Z</time>
      </trkpt>
      <trkpt lat="47.0118" lon="-1.07858">
        <ele>59</ele>
        <time>2021-04-25T22:42:35Z</time>
      </trkpt>
      <trkpt lat="47.01203" lon="-1.07878">
        <ele>62</ele>
        <time>2021-04-25T22:43:11Z</time>
      </trkpt>
      <trkpt lat="47.01214" lon="-1.07897">
        <ele>62</ele>
        <time>2021-04-25T22:43:34Z</time>
      </trkpt>
      <trkpt lat="47.01224" lon="-1.07922">
        <ele>61</ele>
        <time>2021-04-25T22:44:00Z</time>
      </trkpt>
      <trkpt lat="47.01256" lon="-1.07959">
        <ele>62</ele>
        <time>2021-04-25T22:44:54Z</time>
      </trkpt>
      <trkpt lat="47.01282" lon="-1.08005">
        <ele>62</ele>
        <time>2021-04-25T22:45:49Z</time>
      </trkpt>
      <trkpt lat="47.01308" lon="-1.08044">
        <ele>62</ele>
        <time>2021-04-25T22:46:38Z</time>
      </trkpt>
      <trkpt lat="47.01322" lon="-1.08061">
        <ele>62</ele>
        <time>2021-04-25T22:47:03Z</time>
      </trkpt>
      <trkpt lat="47.01357" lon="-1.08134">
        <ele>62</ele>
        <time>2021-04-25T22:48:24Z</time>
      </trkpt>
      <trkpt lat="47.01363" lon="-1.0816">
        <ele>62</ele>
        <time>2021-04-25T22:48:49Z</time>
      </trkpt>
      <trkpt lat="47.01368" lon="-1.08199">
        <ele>62</ele>
        <time>2021-04-25T22:49:25Z</time>
      </trkpt>
      <trkpt lat="47.01366" lon="-1.08233">
        <ele>62</ele>
        <time>2021-04-25T22:49:56Z</time>
      </trkpt>
      <trkpt lat="47.01351" lon="-1.08284">
        <ele>63</ele>
        <time>2021-04-25T22:50:46Z</time>
      </trkpt>
      <trkpt lat="47.01315" lon="-1.0833">
        <ele>62</ele>
        <time>2021-04-25T22:51:50Z</time>
      </trkpt>
      <trkpt lat="47.01297" lon="-1.08345">
        <ele>61</ele>
        <time>2021-04-25T22:52:18Z</time>
      </trkpt>
      <trkpt lat="47.01285" lon="-1.08351">
        <ele>59</ele>
        <time>2021-04-25T22:52:35Z</time>
      </trkpt>
      <trkpt lat="47.01273" lon="-1.08366">
        <ele>59</ele>
        <time>2021-04-25T22:52:56Z</time>
      </trkpt>
      <trkpt lat="47.01265" lon="-1.08365">
        <ele>57</ele>
        <time>2021-04-25T22:53:06Z</time>
      </trkpt>
      <trkpt lat="47.01259" lon="-1.0838">
        <ele>57</ele>
        <time>2021-04-25T22:53:22Z</time>
      </trkpt>
      <trkpt lat="47.01247" lon="-1.08398">
        <ele>56</ele>
        <time>2021-04-25T22:53:45Z</time>
      </trkpt>
      <trkpt lat="47.01245" lon="-1.08396">
        <ele>56</ele>
        <time>2021-04-25T22:53:48Z</time>
      </trkpt>
      <trkpt lat="47.01244" lon="-1.084">
        <ele>56</ele>
        <time>2021-04-25T22:53:52Z</time>
      </trkpt>
      <trkpt lat="47.01248" lon="-1.08401">
        <ele>56</ele>
        <time>2021-04-25T22:53:58Z</time>
      </trkpt>
      <trkpt lat="47.0125" lon="-1.08397">
        <ele>56</ele>
        <time>2021-04-25T22:54:02Z</time>
      </trkpt>
      <trkpt lat="47.01245" lon="-1.084">
        <ele>56</ele>
        <time>2021-04-25T22:54:09Z</time>
      </trkpt>
      <trkpt lat="47.01246" lon="-1.08395">
        <ele>56</ele>
        <time>2021-04-25T22:54:14Z</time>
      </trkpt>
      <trkpt lat="47.01242" lon="-1.08397">
        <ele>56</ele>
        <time>2021-04-25T22:54:20Z</time>
      </trkpt>
      <trkpt lat="47.01245" lon="-1.08399">
        <ele>56</ele>
        <time>2021-04-25T22:54:24Z</time>
      </trkpt>
      <trkpt lat="47.0124" lon="-1.08405">
        <ele>56</ele>
        <time>2021-04-25T22:54:33Z</time>
      </trkpt>
      <trkpt lat="47.01242" lon="-1.08403">
        <ele>56</ele>
        <time>2021-04-25T22:54:36Z</time>
      </trkpt>
      <trkpt lat="47.01239" lon="-1.08401">
        <ele>56</ele>
        <time>2021-04-25T22:54:40Z</time>
      </trkpt>
      <trkpt lat="47.01247" lon="-1.08399">
        <ele>56</ele>
        <time>2021-04-25T22:54:51Z</time>
      </trkpt>
      <trkpt lat="47.01242" lon="-1.08405">
        <ele>56</ele>
        <time>2021-04-25T22:55:00Z</time>
      </trkpt>
      <trkpt lat="47.01245" lon="-1.084">
        <ele>56</ele>
        <time>2021-04-25T22:55:06Z</time>
      </trkpt>
      <trkpt lat="47.0124" lon="-1.08402">
        <ele>56</ele>
        <time>2021-04-25T22:55:13Z</time>
      </trkpt>
      <trkpt lat="47.01245" lon="-1.084">
        <ele>56</ele>
        <time>2021-04-25T22:55:20Z</time>
      </trkpt>
      <trkpt lat="47.01243" lon="-1.08402">
        <ele>56</ele>
        <time>2021-04-25T22:55:23Z</time>
      </trkpt>
      <trkpt lat="47.01244" lon="-1.084">
        <ele>56</ele>
        <time>2021-04-25T22:55:25Z</time>
      </trkpt>
      <trkpt lat="47.0124" lon="-1.08398">
        <ele>56</ele>
        <time>2021-04-25T22:55:31Z</time>
      </trkpt>
      <trkpt lat="47.01244" lon="-1.08396">
        <ele>56</ele>
        <time>2021-04-25T22:55:37Z</time>
      </trkpt>
      <trkpt lat="47.01231" lon="-1.08432">
        <ele>57</ele>
        <time>2021-04-25T22:56:14Z</time>
      </trkpt>
      <trkpt lat="47.01232" lon="-1.08487">
        <ele>58</ele>
        <time>2021-04-25T22:57:04Z</time>
      </trkpt>
      <trkpt lat="47.0124" lon="-1.08504">
        <ele>59</ele>
        <time>2021-04-25T22:57:22Z</time>
      </trkpt>
      <trkpt lat="47.01252" lon="-1.08516">
        <ele>59</ele>
        <time>2021-04-25T22:57:42Z</time>
      </trkpt>
      <trkpt lat="47.0126" lon="-1.08534">
        <ele>59</ele>
        <time>2021-04-25T22:58:01Z</time>
      </trkpt>
      <trkpt lat="47.01264" lon="-1.08548">
        <ele>59</ele>
        <time>2021-04-25T22:58:15Z</time>
      </trkpt>
      <trkpt lat="47.01276" lon="-1.08573">
        <ele>60</ele>
        <time>2021-04-25T22:58:43Z</time>
      </trkpt>
      <trkpt lat="47.01292" lon="-1.08624">
        <ele>60</ele>
        <time>2021-04-25T22:59:34Z</time>
      </trkpt>
      <trkpt lat="47.01347" lon="-1.08704">
        <ele>58</ele>
        <time>2021-04-25T23:01:17Z</time>
      </trkpt>
      <trkpt lat="47.01362" lon="-1.08733">
        <ele>57</ele>
        <time>2021-04-25T23:01:51Z</time>
      </trkpt>
      <trkpt lat="47.01373" lon="-1.08748">
        <ele>57</ele>
        <time>2021-04-25T23:02:11Z</time>
      </trkpt>
      <trkpt lat="47.01395" lon="-1.08762">
        <ele>58</ele>
        <time>2021-04-25T23:02:43Z</time>
      </trkpt>
      <trkpt lat="47.01397" lon="-1.08768">
        <ele>58</ele>
        <time>2021-04-25T23:02:49Z</time>
      </trkpt>
      <trkpt lat="47.01402" lon="-1.08769">
        <ele>58</ele>
        <time>2021-04-25T23:02:55Z</time>
      </trkpt>
      <trkpt lat="47.01422" lon="-1.088">
        <ele>58</ele>
        <time>2021-04-25T23:03:34Z</time>
      </trkpt>
      <trkpt lat="47.01433" lon="-1.0881">
        <ele>59</ele>
        <time>2021-04-25T23:03:52Z</time>
      </trkpt>
      <trkpt lat="47.01462" lon="-1.08851">
        <ele>61</ele>
        <time>2021-04-25T23:04:45Z</time>
      </trkpt>
      <trkpt lat="47.01481" lon="-1.08892">
        <ele>59</ele>
        <time>2021-04-25T23:05:30Z</time>
      </trkpt>
      <trkpt lat="47.01525" lon="-1.0896">
        <ele>56</ele>
        <time>2021-04-25T23:06:56Z</time>
      </trkpt>
      <trkpt lat="47.01525" lon="-1.08974">
        <ele>55</ele>
        <time>2021-04-25T23:07:08Z</time>
      </trkpt>
      <trkpt lat="47.01547" lon="-1.09003">
        <ele>55</ele>
        <time>2021-04-25T23:07:48Z</time>
      </trkpt>
      <trkpt lat="47.01576" lon="-1.09049">
        <ele>56</ele>
        <time>2021-04-25T23:08:45Z</time>
      </trkpt>
      <trkpt lat="47.01585" lon="-1.09045">
        <ele>57</ele>
        <time>2021-04-25T23:08:57Z</time>
      </trkpt>
      <trkpt lat="47.01599" lon="-1.09045">
        <ele>59</ele>
        <time>2021-04-25T23:09:16Z</time>
      </trkpt>
      <trkpt lat="47.0161" lon="-1.09053">
        <ele>61</ele>
        <time>2021-04-25T23:09:33Z</time>
      </trkpt>
      <trkpt lat="47.01625" lon="-1.09039">
        <ele>63</ele>
        <time>2021-04-25T23:09:56Z</time>
      </trkpt>
      <trkpt lat="47.01638" lon="-1.08996">
        <ele>63</ele>
        <time>2021-04-25T23:10:39Z</time>
      </trkpt>
      <trkpt lat="47.01662" lon="-1.08957">
        <ele>62</ele>
        <time>2021-04-25T23:11:27Z</time>
      </trkpt>
      <trkpt lat="47.0168" lon="-1.08944">
        <ele>63</ele>
        <time>2021-04-25T23:11:54Z</time>
      </trkpt>
      <trkpt lat="47.01698" lon="-1.08936">
        <ele>64</ele>
        <time>2021-04-25T23:12:19Z</time>
      </trkpt>
      <trkpt lat="47.01716" lon="-1.08939">
        <ele>66</ele>
        <time>2021-04-25T23:12:43Z</time>
      </trkpt>
      <trkpt lat="47.01737" lon="-1.08952">
        <ele>70</ele>
        <time>2021-04-25T23:13:13Z</time>
      </trkpt>
      <trkpt lat="47.01755" lon="-1.08958">
        <ele>72</ele>
        <time>2021-04-25T23:13:38Z</time>
      </trkpt>
      <trkpt lat="47.01802" lon="-1.08969">
        <ele>76</ele>
        <time>2021-04-25T23:14:41Z</time>
      </trkpt>
      <trkpt lat="47.01828" lon="-1.0897">
        <ele>78</ele>
        <time>2021-04-25T23:15:16Z</time>
      </trkpt>
      <trkpt lat="47.01858" lon="-1.0898">
        <ele>80</ele>
        <time>2021-04-25T23:15:57Z</time>
      </trkpt>
      <trkpt lat="47.01869" lon="-1.08991">
        <ele>82</ele>
        <time>2021-04-25T23:16:15Z</time>
      </trkpt>
      <trkpt lat="47.01872" lon="-1.09005">
        <ele>83</ele>
        <time>2021-04-25T23:16:28Z</time>
      </trkpt>
      <trkpt lat="47.01856" lon="-1.09008">
        <ele>83</ele>
        <time>2021-04-25T23:16:50Z</time>
      </trkpt>
      <trkpt lat="47.01837" lon="-1.09022">
        <ele>84</ele>
        <time>2021-04-25T23:17:18Z</time>
      </trkpt>
      <trkpt lat="47.01806" lon="-1.09063">
        <ele>86</ele>
        <time>2021-04-25T23:18:14Z</time>
      </trkpt>
      <trkpt lat="47.01782" lon="-1.09127">
        <ele>89</ele>
        <time>2021-04-25T23:19:20Z</time>
      </trkpt>
      <trkpt lat="47.01772" lon="-1.09173">
        <ele>90</ele>
        <time>2021-04-25T23:20:04Z</time>
      </trkpt>
      <trkpt lat="47.01768" lon="-1.09205">
        <ele>90</ele>
        <time>2021-04-25T23:20:34Z</time>
      </trkpt>
      <trkpt lat="47.01773" lon="-1.09314">
        <ele>87</ele>
        <time>2021-04-25T23:22:13Z</time>
      </trkpt>
      <trkpt lat="47.01783" lon="-1.09349">
        <ele>86</ele>
        <time>2021-04-25T23:22:48Z</time>
      </trkpt>
      <trkpt lat="47.01793" lon="-1.09365">
        <ele>86</ele>
        <time>2021-04-25T23:23:08Z</time>
      </trkpt>
      <trkpt lat="47.01797" lon="-1.09384">
        <ele>87</ele>
        <time>2021-04-25T23:23:26Z</time>
      </trkpt>
      <trkpt lat="47.01794" lon="-1.09391">
        <ele>87</ele>
        <time>2021-04-25T23:23:33Z</time>
      </trkpt>
      <trkpt lat="47.01779" lon="-1.09409">
        <ele>87</ele>
        <time>2021-04-25T23:23:59Z</time>
      </trkpt>
      <trkpt lat="47.01763" lon="-1.09421">
        <ele>87</ele>
        <time>2021-04-25T23:24:23Z</time>
      </trkpt>
      <trkpt lat="47.01762" lon="-1.09437">
        <ele>87</ele>
        <time>2021-04-25T23:24:38Z</time>
      </trkpt>
      <trkpt lat="47.01779" lon="-1.09582">
        <ele>91</ele>
        <time>2021-04-25T23:26:52Z</time>
      </trkpt>
      <trkpt lat="47.01779" lon="-1.09608">
        <ele>91</ele>
        <time>2021-04-25T23:27:15Z</time>
      </trkpt>
      <trkpt lat="47.01791" lon="-1.09639">
        <ele>92</ele>
        <time>2021-04-25T23:27:48Z</time>
      </trkpt>
      <trkpt lat="47.01782" lon="-1.09648">
        <ele>92</ele>
        <time>2021-04-25T23:28:02Z</time>
      </trkpt>
      <trkpt lat="47.01793" lon="-1.09657">
        <ele>92</ele>
        <time>2021-04-25T23:28:19Z</time>
      </trkpt>
      <trkpt lat="47.01811" lon="-1.09785">
        <ele>92</ele>
        <time>2021-04-25T23:30:18Z</time>
      </trkpt>
      <trkpt lat="47.01816" lon="-1.09805">
        <ele>92</ele>
        <time>2021-04-25T23:30:37Z</time>
      </trkpt>
      <trkpt lat="47.01811" lon="-1.09813">
        <ele>92</ele>
        <time>2021-04-25T23:30:47Z</time>
      </trkpt>
      <trkpt lat="47.01801" lon="-1.09821">
        <ele>91</ele>
        <time>2021-04-25T23:31:02Z</time>
      </trkpt>
      <trkpt lat="47.01767" lon="-1.09837">
        <ele>90</ele>
        <time>2021-04-25T23:31:50Z</time>
      </trkpt>
      <trkpt lat="47.01732" lon="-1.0985">
        <ele>89</ele>
        <time>2021-04-25T23:32:38Z</time>
      </trkpt>
      <trkpt lat="47.01769" lon="-1.0983">
        <ele>90</ele>
        <time>2021-04-25T23:33:31Z</time>
      </trkpt>
      <trkpt lat="47.01783" lon="-1.09825">
        <ele>90</ele>
        <time>2021-04-25T23:33:50Z</time>
      </trkpt>
      <trkpt lat="47.01787" lon="-1.09831">
        <ele>90</ele>
        <time>2021-04-25T23:33:58Z</time>
      </trkpt>
      <trkpt lat="47.01787" lon="-1.09863">
        <ele>90</ele>
        <time>2021-04-25T23:34:27Z</time>
      </trkpt>
      <trkpt lat="47.01795" lon="-1.0996">
        <ele>91</ele>
        <time>2021-04-25T23:35:56Z</time>
      </trkpt>
      <trkpt lat="47.01807" lon="-1.10073">
        <ele>90</ele>
        <time>2021-04-25T23:37:40Z</time>
      </trkpt>
      <trkpt lat="47.01807" lon="-1.10106">
        <ele>90</ele>
        <time>2021-04-25T23:38:10Z</time>
      </trkpt>
      <trkpt lat="47.0179" lon="-1.10109">
        <ele>89</ele>
        <time>2021-04-25T23:38:33Z</time>
      </trkpt>
      <trkpt lat="47.01726" lon="-1.10105">
        <ele>87</ele>
        <time>2021-04-25T23:39:58Z</time>
      </trkpt>
      <trkpt lat="47.01714" lon="-1.10098">
        <ele>86</ele>
        <time>2021-04-25T23:40:15Z</time>
      </trkpt>
      <trkpt lat="47.01708" lon="-1.1007">
        <ele>86</ele>
        <time>2021-04-25T23:40:42Z</time>
      </trkpt>
      <trkpt lat="47.0171" lon="-1.10065">
        <ele>86</ele>
        <time>2021-04-25T23:40:47Z</time>
      </trkpt>
      <trkpt lat="47.01706" lon="-1.10072">
        <ele>86</ele>
        <time>2021-04-25T23:40:56Z</time>
      </trkpt>
      <trkpt lat="47.01698" lon="-1.10079">
        <ele>85</ele>
        <time>2021-04-25T23:41:08Z</time>
      </trkpt>
      <trkpt lat="47.01665" lon="-1.10089">
        <ele>83</ele>
        <time>2021-04-25T23:41:53Z</time>
      </trkpt>
      <trkpt lat="47.01619" lon="-1.10094">
        <ele>76</ele>
        <time>2021-04-25T23:42:55Z</time>
      </trkpt>
      <trkpt lat="47.01602" lon="-1.101">
        <ele>74</ele>
        <time>2021-04-25T23:43:18Z</time>
      </trkpt>
      <trkpt lat="47.0159" lon="-1.10108">
        <ele>72</ele>
        <time>2021-04-25T23:43:35Z</time>
      </trkpt>
      <trkpt lat="47.01581" lon="-1.10121">
        <ele>71</ele>
        <time>2021-04-25T23:43:52Z</time>
      </trkpt>
      <trkpt lat="47.01558" lon="-1.10191">
        <ele>66</ele>
        <time>2021-04-25T23:45:03Z</time>
      </trkpt>
      <trkpt lat="47.01557" lon="-1.10208">
        <ele>65</ele>
        <time>2021-04-25T23:45:19Z</time>
      </trkpt>
      <trkpt lat="47.01563" lon="-1.10234">
        <ele>65</ele>
        <time>2021-04-25T23:45:43Z</time>
      </trkpt>
      <trkpt lat="47.01565" lon="-1.10341">
        <ele>62</ele>
        <time>2021-04-25T23:47:21Z</time>
      </trkpt>
      <trkpt lat="47.01554" lon="-1.10401">
        <ele>60</ele>
        <time>2021-04-25T23:48:17Z</time>
      </trkpt>
      <trkpt lat="47.01543" lon="-1.10436">
        <ele>59</ele>
        <time>2021-04-25T23:48:52Z</time>
      </trkpt>
      <trkpt lat="47.0154" lon="-1.10488">
        <ele>58</ele>
        <time>2021-04-25T23:49:40Z</time>
      </trkpt>
      <trkpt lat="47.01548" lon="-1.1057">
        <ele>58</ele>
        <time>2021-04-25T23:50:55Z</time>
      </trkpt>
      <trkpt lat="47.01552" lon="-1.10587">
        <ele>58</ele>
        <time>2021-04-25T23:51:12Z</time>
      </trkpt>
      <trkpt lat="47.01564" lon="-1.10614">
        <ele>57</ele>
        <time>2021-04-25T23:51:41Z</time>
      </trkpt>
      <trkpt lat="47.01569" lon="-1.10636">
        <ele>56</ele>
        <time>2021-04-25T23:52:02Z</time>
      </trkpt>
      <trkpt lat="47.01598" lon="-1.10794">
        <ele>53</ele>
        <time>2021-04-25T23:54:31Z</time>
      </trkpt>
      <trkpt lat="47.01614" lon="-1.10892">
        <ele>54</ele>
        <time>2021-04-25T23:56:03Z</time>
      </trkpt>
      <trkpt lat="47.0161" lon="-1.10927">
        <ele>53</ele>
        <time>2021-04-25T23:56:35Z</time>
      </trkpt>
      <trkpt lat="47.01617" lon="-1.10971">
        <ele>54</ele>
        <time>2021-04-25T23:57:16Z</time>
      </trkpt>
      <trkpt lat="47.01626" lon="-1.10994">
        <ele>54</ele>
        <time>2021-04-25T23:57:40Z</time>
      </trkpt>
      <trkpt lat="47.01613" lon="-1.11034">
        <ele>52</ele>
        <time>2021-04-25T23:58:20Z</time>
      </trkpt>
      <trkpt lat="47.01607" lon="-1.11066">
        <ele>52</ele>
        <time>2021-04-25T23:58:51Z</time>
      </trkpt>
      <trkpt lat="47.01594" lon="-1.11201">
        <ele>50</ele>
        <time>2021-04-26T00:00:55Z</time>
      </trkpt>
      <trkpt lat="47.01586" lon="-1.11237">
        <ele>51</ele>
        <time>2021-04-26T00:01:29Z</time>
      </trkpt>
      <trkpt lat="47.01582" lon="-1.11284">
        <ele>54</ele>
        <time>2021-04-26T00:02:12Z</time>
      </trkpt>
      <trkpt lat="47.0158" lon="-1.11286">
        <ele>55</ele>
        <time>2021-04-26T00:02:16Z</time>
      </trkpt>
      <trkpt lat="47.01574" lon="-1.11284">
        <ele>55</ele>
        <time>2021-04-26T00:02:24Z</time>
      </trkpt>
      <trkpt lat="47.0156" lon="-1.11274">
        <ele>57</ele>
        <time>2021-04-26T00:02:45Z</time>
      </trkpt>
      <trkpt lat="47.01548" lon="-1.11274">
        <ele>59</ele>
        <time>2021-04-26T00:03:01Z</time>
      </trkpt>
      <trkpt lat="47.0154" lon="-1.11288">
        <ele>61</ele>
        <time>2021-04-26T00:03:17Z</time>
      </trkpt>
      <trkpt lat="47.0152" lon="-1.11313">
        <ele>66</ele>
        <time>2021-04-26T00:03:52Z</time>
      </trkpt>
      <trkpt lat="47.01511" lon="-1.11314">
        <ele>68</ele>
        <time>2021-04-26T00:04:04Z</time>
      </trkpt>
      <trkpt lat="47.01504" lon="-1.11318">
        <ele>69</ele>
        <time>2021-04-26T00:04:14Z</time>
      </trkpt>
      <trkpt lat="47.01495" lon="-1.11329">
        <ele>71</ele>
        <time>2021-04-26T00:04:30Z</time>
      </trkpt>
      <trkpt lat="47.01489" lon="-1.11343">
        <ele>73</ele>
        <time>2021-04-26T00:04:45Z</time>
      </trkpt>
      <trkpt lat="47.0146" lon="-1.11359">
        <ele>77</ele>
        <time>2021-04-26T00:05:26Z</time>
      </trkpt>
      <trkpt lat="47.01445" lon="-1.11359">
        <ele>79</ele>
        <time>2021-04-26T00:05:46Z</time>
      </trkpt>
      <trkpt lat="47.01434" lon="-1.11349">
        <ele>81</ele>
        <time>2021-04-26T00:06:04Z</time>
      </trkpt>
      <trkpt lat="47.01418" lon="-1.11315">
        <ele>84</ele>
        <time>2021-04-26T00:06:41Z</time>
      </trkpt>
      <trkpt lat="47.01406" lon="-1.11311">
        <ele>84</ele>
        <time>2021-04-26T00:06:58Z</time>
      </trkpt>
      <trkpt lat="47.01398" lon="-1.11305">
        <ele>84</ele>
        <time>2021-04-26T00:07:10Z</time>
      </trkpt>
      <trkpt lat="47.01386" lon="-1.11287">
        <ele>85</ele>
        <time>2021-04-26T00:07:32Z</time>
      </trkpt>
      <trkpt lat="47.01379" lon="-1.11281">
        <ele>85</ele>
        <time>2021-04-26T00:07:43Z</time>
      </trkpt>
      <trkpt lat="47.01363" lon="-1.11241">
        <ele>86</ele>
        <time>2021-04-26T00:08:26Z</time>
      </trkpt>
      <trkpt lat="47.01346" lon="-1.11222">
        <ele>88</ele>
        <time>2021-04-26T00:08:54Z</time>
      </trkpt>
      <trkpt lat="47.01318" lon="-1.1118">
        <ele>90</ele>
        <time>2021-04-26T00:09:47Z</time>
      </trkpt>
      <trkpt lat="47.01299" lon="-1.11181">
        <ele>90</ele>
        <time>2021-04-26T00:10:13Z</time>
      </trkpt>
      <trkpt lat="47.01284" lon="-1.112">
        <ele>90</ele>
        <time>2021-04-26T00:10:39Z</time>
      </trkpt>
      <trkpt lat="47.0127" lon="-1.11259">
        <ele>89</ele>
        <time>2021-04-26T00:11:36Z</time>
      </trkpt>
      <trkpt lat="47.01254" lon="-1.1134">
        <ele>88</ele>
        <time>2021-04-26T00:12:53Z</time>
      </trkpt>
      <trkpt lat="47.01236" lon="-1.11487">
        <ele>80</ele>
        <time>2021-04-26T00:15:09Z</time>
      </trkpt>
      <trkpt lat="47.01228" lon="-1.11509">
        <ele>79</ele>
        <time>2021-04-26T00:15:31Z</time>
      </trkpt>
      <trkpt lat="47.0119" lon="-1.11506">
        <ele>79</ele>
        <time>2021-04-26T00:16:22Z</time>
      </trkpt>
      <trkpt lat="47.01151" lon="-1.11515">
        <ele>79</ele>
        <time>2021-04-26T00:17:15Z</time>
      </trkpt>
      <trkpt lat="47.01119" lon="-1.11526">
        <ele>80</ele>
        <time>2021-04-26T00:17:59Z</time>
      </trkpt>
      <trkpt lat="47.01115" lon="-1.11537">
        <ele>79</ele>
        <time>2021-04-26T00:18:10Z</time>
      </trkpt>
      <trkpt lat="47.01115" lon="-1.11548">
        <ele>78</ele>
        <time>2021-04-26T00:18:20Z</time>
      </trkpt>
      <trkpt lat="47.01123" lon="-1.11569">
        <ele>77</ele>
        <time>2021-04-26T00:18:42Z</time>
      </trkpt>
      <trkpt lat="47.01127" lon="-1.11591">
        <ele>75</ele>
        <time>2021-04-26T00:19:03Z</time>
      </trkpt>
      <trkpt lat="47.01118" lon="-1.11614">
        <ele>73</ele>
        <time>2021-04-26T00:19:27Z</time>
      </trkpt>
      <trkpt lat="47.01106" lon="-1.11633">
        <ele>72</ele>
        <time>2021-04-26T00:19:50Z</time>
      </trkpt>
      <trkpt lat="47.01095" lon="-1.11662">
        <ele>70</ele>
        <time>2021-04-26T00:20:21Z</time>
      </trkpt>
      <trkpt lat="47.01073" lon="-1.11697">
        <ele>68</ele>
        <time>2021-04-26T00:21:04Z</time>
      </trkpt>
      <trkpt lat="47.01063" lon="-1.11719">
        <ele>66</ele>
        <time>2021-04-26T00:21:28Z</time>
      </trkpt>
      <trkpt lat="47.01059" lon="-1.11747">
        <ele>64</ele>
        <time>2021-04-26T00:21:54Z</time>
      </trkpt>
      <trkpt lat="47.01049" lon="-1.11763">
        <ele>63</ele>
        <time>2021-04-26T00:22:14Z</time>
      </trkpt>
      <trkpt lat="47.01034" lon="-1.11777">
        <ele>62</ele>
        <time>2021-04-26T00:22:38Z</time>
      </trkpt>
      <trkpt lat="47.01022" lon="-1.11782">
        <ele>62</ele>
        <time>2021-04-26T00:22:54Z</time>
      </trkpt>
      <trkpt lat="47.01012" lon="-1.11793">
        <ele>61</ele>
        <time>2021-04-26T00:23:11Z</time>
      </trkpt>
      <trkpt lat="47.0101" lon="-1.11809">
        <ele>60</ele>
        <time>2021-04-26T00:23:26Z</time>
      </trkpt>
      <trkpt lat="47.01019" lon="-1.1182">
        <ele>60</ele>
        <time>2021-04-26T00:23:41Z</time>
      </trkpt>
      <trkpt lat="47.01037" lon="-1.11833">
        <ele>59</ele>
        <time>2021-04-26T00:24:08Z</time>
      </trkpt>
      <trkpt lat="47.01051" lon="-1.11862">
        <ele>60</ele>
        <time>2021-04-26T00:24:40Z</time>
      </trkpt>
      <trkpt lat="47.01048" lon="-1.11856">
        <ele>60</ele>
        <time>2021-04-26T00:24:47Z</time>
      </trkpt>
      <trkpt lat="47.01045" lon="-1.11855">
        <ele>60</ele>
        <time>2021-04-26T00:24:51Z</time>
      </trkpt>
      <trkpt lat="47.0106" lon="-1.11866">
        <ele>60</ele>
        <time>2021-04-26T00:25:14Z</time>
      </trkpt>
      <trkpt lat="47.01075" lon="-1.11881">
        <ele>59</ele>
        <time>2021-04-26T00:25:38Z</time>
      </trkpt>
      <trkpt lat="47.01092" lon="-1.11892">
        <ele>59</ele>
        <time>2021-04-26T00:26:03Z</time>
      </trkpt>
      <trkpt lat="47.01118" lon="-1.11902">
        <ele>58</ele>
        <time>2021-04-26T00:26:39Z</time>
      </trkpt>
      <trkpt lat="47.01132" lon="-1.11915">
        <ele>57</ele>
        <time>2021-04-26T00:27:01Z</time>
      </trkpt>
      <trkpt lat="47.01139" lon="-1.11917">
        <ele>57</ele>
        <time>2021-04-26T00:27:10Z</time>
      </trkpt>
      <trkpt lat="47.01143" lon="-1.11923">
        <ele>58</ele>
        <time>2021-04-26T00:27:18Z</time>
      </trkpt>
      <trkpt lat="47.01175" lon="-1.11932">
        <ele>58</ele>
        <time>2021-04-26T00:28:01Z</time>
      </trkpt>
      <trkpt lat="47.0121" lon="-1.11932">
        <ele>57</ele>
        <time>2021-04-26T00:28:48Z</time>
      </trkpt>
      <trkpt lat="47.01228" lon="-1.11938">
        <ele>58</ele>
        <time>2021-04-26T00:29:13Z</time>
      </trkpt>
      <trkpt lat="47.01234" lon="-1.11938">
        <ele>58</ele>
        <time>2021-04-26T00:29:21Z</time>
      </trkpt>
      <trkpt lat="47.0125" lon="-1.1193">
        <ele>57</ele>
        <time>2021-04-26T00:29:43Z</time>
      </trkpt>
      <trkpt lat="47.01271" lon="-1.11925">
        <ele>57</ele>
        <time>2021-04-26T00:30:12Z</time>
      </trkpt>
      <trkpt lat="47.01286" lon="-1.11911">
        <ele>56</ele>
        <time>2021-04-26T00:30:35Z</time>
      </trkpt>
      <trkpt lat="47.01302" lon="-1.11906">
        <ele>56</ele>
        <time>2021-04-26T00:30:57Z</time>
      </trkpt>
      <trkpt lat="47.01309" lon="-1.11907">
        <ele>56</ele>
        <time>2021-04-26T00:31:07Z</time>
      </trkpt>
      <trkpt lat="47.01312" lon="-1.11899">
        <ele>56</ele>
        <time>2021-04-26T00:31:15Z</time>
      </trkpt>
      <trkpt lat="47.01304" lon="-1.11857">
        <ele>56</ele>
        <time>2021-04-26T00:31:54Z</time>
      </trkpt>
      <trkpt lat="47.01304" lon="-1.11842">
        <ele>56</ele>
        <time>2021-04-26T00:32:08Z</time>
      </trkpt>
      <trkpt lat="47.01318" lon="-1.11827">
        <ele>56</ele>
        <time>2021-04-26T00:32:31Z</time>
      </trkpt>
    </trkseg>
  </trk>
</gpx>